<?xml version="1.0" encoding="UTF-8" standalone="no" ?>
<gpx xmlns="http://www.topografix.com/GPX/1/1" xmlns:xsi="http://www.w3.org/2001/XMLSchema-instance" xsi:schemaLocation="http://www.topografix.com/GPX/1/1 http://www.topografix.com/GPX/1/1/gpx.xsd" version="1.1" creator="VisuGPX - https://www.visugpx.com">
  <metadata>
    <name>VTT_Circuit Forêt d\'Evreux</name>
    <desc><![CDATA[Circuit 30 KM 60% en Forêt
50% Technique
50% Roulant]]></desc>
  </metadata>
  <trk>
    <name><![CDATA[ACTIVE LOG: 08 OCT 2011 14:17]]></name>
    <trkseg>
      <trkpt lat="49.00248" lon="1.08921">
        <ele>124.63</ele>
        <time>2011-10-08T12:17:23Z</time>
      </trkpt>
      <trkpt lat="49.00248" lon="1.08921">
        <ele>124.63</ele>
        <time>2011-10-08T12:17:59Z</time>
      </trkpt>
      <trkpt lat="49.00249" lon="1.08919">
        <ele>125.11</ele>
        <time>2011-10-08T12:18:02Z</time>
      </trkpt>
      <trkpt lat="49.00251" lon="1.08914">
        <ele>125.11</ele>
        <time>2011-10-08T12:18:24Z</time>
      </trkpt>
      <trkpt lat="49.00245" lon="1.08941">
        <ele>124.15</ele>
        <time>2011-10-08T12:18:35Z</time>
      </trkpt>
      <trkpt lat="49.0021" lon="1.08949">
        <ele>125.11</ele>
        <time>2011-10-08T12:18:48Z</time>
      </trkpt>
      <trkpt lat="49.00217" lon="1.09019">
        <ele>123.67</ele>
        <time>2011-10-08T12:19:02Z</time>
      </trkpt>
      <trkpt lat="49.00224" lon="1.09034">
        <ele>123.19</ele>
        <time>2011-10-08T12:19:05Z</time>
      </trkpt>
      <trkpt lat="49.00251" lon="1.09079">
        <ele>123.19</ele>
        <time>2011-10-08T12:19:16Z</time>
      </trkpt>
      <trkpt lat="49.00241" lon="1.09123">
        <ele>124.63</ele>
        <time>2011-10-08T12:19:26Z</time>
      </trkpt>
      <trkpt lat="49.00194" lon="1.09142">
        <ele>124.63</ele>
        <time>2011-10-08T12:19:39Z</time>
      </trkpt>
      <trkpt lat="49.00147" lon="1.09182">
        <ele>126.07</ele>
        <time>2011-10-08T12:19:54Z</time>
      </trkpt>
      <trkpt lat="49.00133" lon="1.09217">
        <ele>124.63</ele>
        <time>2011-10-08T12:20:02Z</time>
      </trkpt>
      <trkpt lat="49.00137" lon="1.0925">
        <ele>123.67</ele>
        <time>2011-10-08T12:20:07Z</time>
      </trkpt>
      <trkpt lat="49.00156" lon="1.09312">
        <ele>125.59</ele>
        <time>2011-10-08T12:20:20Z</time>
      </trkpt>
      <trkpt lat="49.00158" lon="1.09347">
        <ele>123.19</ele>
        <time>2011-10-08T12:20:30Z</time>
      </trkpt>
      <trkpt lat="49.00157" lon="1.09369">
        <ele>119.82</ele>
        <time>2011-10-08T12:20:36Z</time>
      </trkpt>
      <trkpt lat="49.00158" lon="1.09392">
        <ele>116.46</ele>
        <time>2011-10-08T12:20:41Z</time>
      </trkpt>
      <trkpt lat="49.0016" lon="1.09411">
        <ele>113.09</ele>
        <time>2011-10-08T12:20:45Z</time>
      </trkpt>
      <trkpt lat="49.00161" lon="1.09422">
        <ele>112.61</ele>
        <time>2011-10-08T12:20:47Z</time>
      </trkpt>
      <trkpt lat="49.00163" lon="1.09449">
        <ele>109.25</ele>
        <time>2011-10-08T12:20:52Z</time>
      </trkpt>
      <trkpt lat="49.00164" lon="1.09454">
        <ele>109.25</ele>
        <time>2011-10-08T12:20:53Z</time>
      </trkpt>
      <trkpt lat="49.00165" lon="1.09473">
        <ele>106.36</ele>
        <time>2011-10-08T12:20:57Z</time>
      </trkpt>
      <trkpt lat="49.00166" lon="1.09496">
        <ele>103.48</ele>
        <time>2011-10-08T12:21:02Z</time>
      </trkpt>
      <trkpt lat="49.00166" lon="1.09514">
        <ele>101.08</ele>
        <time>2011-10-08T12:21:06Z</time>
      </trkpt>
      <trkpt lat="49.00166" lon="1.09537">
        <ele>98.19</ele>
        <time>2011-10-08T12:21:10Z</time>
      </trkpt>
      <trkpt lat="49.00166" lon="1.09543">
        <ele>98.19</ele>
        <time>2011-10-08T12:21:11Z</time>
      </trkpt>
      <trkpt lat="49.00164" lon="1.09565">
        <ele>95.31</ele>
        <time>2011-10-08T12:21:15Z</time>
      </trkpt>
      <trkpt lat="49.00163" lon="1.0959">
        <ele>90.98</ele>
        <time>2011-10-08T12:21:19Z</time>
      </trkpt>
      <trkpt lat="49.00163" lon="1.09595">
        <ele>91.46</ele>
        <time>2011-10-08T12:21:20Z</time>
      </trkpt>
      <trkpt lat="49.00163" lon="1.09615">
        <ele>88.1</ele>
        <time>2011-10-08T12:21:24Z</time>
      </trkpt>
      <trkpt lat="49.00162" lon="1.09626">
        <ele>86.18</ele>
        <time>2011-10-08T12:21:27Z</time>
      </trkpt>
      <trkpt lat="49.00163" lon="1.09638">
        <ele>84.73</ele>
        <time>2011-10-08T12:21:30Z</time>
      </trkpt>
      <trkpt lat="49.00164" lon="1.09652">
        <ele>81.85</ele>
        <time>2011-10-08T12:21:34Z</time>
      </trkpt>
      <trkpt lat="49.00171" lon="1.09686">
        <ele>77.52</ele>
        <time>2011-10-08T12:21:41Z</time>
      </trkpt>
      <trkpt lat="49.00179" lon="1.09735">
        <ele>76.08</ele>
        <time>2011-10-08T12:21:51Z</time>
      </trkpt>
      <trkpt lat="49.00241" lon="1.09844">
        <ele>75.6</ele>
        <time>2011-10-08T12:22:08Z</time>
      </trkpt>
      <trkpt lat="49.00241" lon="1.09893">
        <ele>75.12</ele>
        <time>2011-10-08T12:22:14Z</time>
      </trkpt>
      <trkpt lat="49.00229" lon="1.09905">
        <ele>74.16</ele>
        <time>2011-10-08T12:22:16Z</time>
      </trkpt>
      <trkpt lat="49.00206" lon="1.09922">
        <ele>73.2</ele>
        <time>2011-10-08T12:22:20Z</time>
      </trkpt>
      <trkpt lat="49.00085" lon="1.10036">
        <ele>73.68</ele>
        <time>2011-10-08T12:22:43Z</time>
      </trkpt>
      <trkpt lat="49" lon="1.10075">
        <ele>74.64</ele>
        <time>2011-10-08T12:22:59Z</time>
      </trkpt>
      <trkpt lat="48.99968" lon="1.10097">
        <ele>74.16</ele>
        <time>2011-10-08T12:23:06Z</time>
      </trkpt>
      <trkpt lat="48.99958" lon="1.10105">
        <ele>74.16</ele>
        <time>2011-10-08T12:23:08Z</time>
      </trkpt>
      <trkpt lat="48.99936" lon="1.10081">
        <ele>74.16</ele>
        <time>2011-10-08T12:23:14Z</time>
      </trkpt>
      <trkpt lat="48.99935" lon="1.10071">
        <ele>74.16</ele>
        <time>2011-10-08T12:23:15Z</time>
      </trkpt>
      <trkpt lat="48.99876" lon="1.09896">
        <ele>73.2</ele>
        <time>2011-10-08T12:23:33Z</time>
      </trkpt>
      <trkpt lat="48.99835" lon="1.09782">
        <ele>72.72</ele>
        <time>2011-10-08T12:23:46Z</time>
      </trkpt>
      <trkpt lat="48.99814" lon="1.09586">
        <ele>74.16</ele>
        <time>2011-10-08T12:24:07Z</time>
      </trkpt>
      <trkpt lat="48.99776" lon="1.09453">
        <ele>74.64</ele>
        <time>2011-10-08T12:24:23Z</time>
      </trkpt>
      <trkpt lat="48.9972" lon="1.09264">
        <ele>74.64</ele>
        <time>2011-10-08T12:24:45Z</time>
      </trkpt>
      <trkpt lat="48.9971" lon="1.09219">
        <ele>74.64</ele>
        <time>2011-10-08T12:24:50Z</time>
      </trkpt>
      <trkpt lat="48.99705" lon="1.09201">
        <ele>73.2</ele>
        <time>2011-10-08T12:24:52Z</time>
      </trkpt>
      <trkpt lat="48.99666" lon="1.09072">
        <ele>74.64</ele>
        <time>2011-10-08T12:25:07Z</time>
      </trkpt>
      <trkpt lat="48.99658" lon="1.09009">
        <ele>73.68</ele>
        <time>2011-10-08T12:25:14Z</time>
      </trkpt>
      <trkpt lat="48.99611" lon="1.0886">
        <ele>76.56</ele>
        <time>2011-10-08T12:25:32Z</time>
      </trkpt>
      <trkpt lat="48.99597" lon="1.08821">
        <ele>75.12</ele>
        <time>2011-10-08T12:25:37Z</time>
      </trkpt>
      <trkpt lat="48.99535" lon="1.08587">
        <ele>75.6</ele>
        <time>2011-10-08T12:26:03Z</time>
      </trkpt>
      <trkpt lat="48.99506" lon="1.08375">
        <ele>76.08</ele>
        <time>2011-10-08T12:26:26Z</time>
      </trkpt>
      <trkpt lat="48.99463" lon="1.08174">
        <ele>76.56</ele>
        <time>2011-10-08T12:26:48Z</time>
      </trkpt>
      <trkpt lat="48.99448" lon="1.07997">
        <ele>77.04</ele>
        <time>2011-10-08T12:27:07Z</time>
      </trkpt>
      <trkpt lat="48.9945" lon="1.07764">
        <ele>77.04</ele>
        <time>2011-10-08T12:27:33Z</time>
      </trkpt>
      <trkpt lat="48.99449" lon="1.07698">
        <ele>77.04</ele>
        <time>2011-10-08T12:27:41Z</time>
      </trkpt>
      <trkpt lat="48.9945" lon="1.0749">
        <ele>77.04</ele>
        <time>2011-10-08T12:28:05Z</time>
      </trkpt>
      <trkpt lat="48.9945" lon="1.07359">
        <ele>78</ele>
        <time>2011-10-08T12:28:20Z</time>
      </trkpt>
      <trkpt lat="48.9945" lon="1.07274">
        <ele>76.08</ele>
        <time>2011-10-08T12:28:30Z</time>
      </trkpt>
      <trkpt lat="48.9945" lon="1.07109">
        <ele>77.52</ele>
        <time>2011-10-08T12:28:49Z</time>
      </trkpt>
      <trkpt lat="48.9945" lon="1.07057">
        <ele>78</ele>
        <time>2011-10-08T12:28:55Z</time>
      </trkpt>
      <trkpt lat="48.99451" lon="1.06914">
        <ele>78.48</ele>
        <time>2011-10-08T12:29:12Z</time>
      </trkpt>
      <trkpt lat="48.9945" lon="1.06786">
        <ele>78.48</ele>
        <time>2011-10-08T12:29:27Z</time>
      </trkpt>
      <trkpt lat="48.9945" lon="1.06687">
        <ele>78.97</ele>
        <time>2011-10-08T12:29:39Z</time>
      </trkpt>
      <trkpt lat="48.99455" lon="1.06657">
        <ele>79.93</ele>
        <time>2011-10-08T12:29:43Z</time>
      </trkpt>
      <trkpt lat="48.99465" lon="1.06638">
        <ele>79.45</ele>
        <time>2011-10-08T12:29:46Z</time>
      </trkpt>
      <trkpt lat="48.99478" lon="1.06604">
        <ele>78</ele>
        <time>2011-10-08T12:29:51Z</time>
      </trkpt>
      <trkpt lat="48.9949" lon="1.06584">
        <ele>78.48</ele>
        <time>2011-10-08T12:29:55Z</time>
      </trkpt>
      <trkpt lat="48.99491" lon="1.06555">
        <ele>78.97</ele>
        <time>2011-10-08T12:29:59Z</time>
      </trkpt>
      <trkpt lat="48.99487" lon="1.06535">
        <ele>79.45</ele>
        <time>2011-10-08T12:30:02Z</time>
      </trkpt>
      <trkpt lat="48.99479" lon="1.06479">
        <ele>78.48</ele>
        <time>2011-10-08T12:30:10Z</time>
      </trkpt>
      <trkpt lat="48.99477" lon="1.06465">
        <ele>79.45</ele>
        <time>2011-10-08T12:30:12Z</time>
      </trkpt>
      <trkpt lat="48.99474" lon="1.06446">
        <ele>79.45</ele>
        <time>2011-10-08T12:30:15Z</time>
      </trkpt>
      <trkpt lat="48.9949" lon="1.06406">
        <ele>78.97</ele>
        <time>2011-10-08T12:30:22Z</time>
      </trkpt>
      <trkpt lat="48.99508" lon="1.06393">
        <ele>78.97</ele>
        <time>2011-10-08T12:30:27Z</time>
      </trkpt>
      <trkpt lat="48.99525" lon="1.06378">
        <ele>78.97</ele>
        <time>2011-10-08T12:30:31Z</time>
      </trkpt>
      <trkpt lat="48.99534" lon="1.06349">
        <ele>78.97</ele>
        <time>2011-10-08T12:30:35Z</time>
      </trkpt>
      <trkpt lat="48.99535" lon="1.06322">
        <ele>78</ele>
        <time>2011-10-08T12:30:38Z</time>
      </trkpt>
      <trkpt lat="48.99566" lon="1.06278">
        <ele>78.48</ele>
        <time>2011-10-08T12:30:46Z</time>
      </trkpt>
      <trkpt lat="48.99611" lon="1.06267">
        <ele>78.48</ele>
        <time>2011-10-08T12:30:55Z</time>
      </trkpt>
      <trkpt lat="48.99651" lon="1.06266">
        <ele>78.97</ele>
        <time>2011-10-08T12:31:03Z</time>
      </trkpt>
      <trkpt lat="48.99666" lon="1.06263">
        <ele>78.97</ele>
        <time>2011-10-08T12:31:06Z</time>
      </trkpt>
      <trkpt lat="48.9968" lon="1.06248">
        <ele>79.45</ele>
        <time>2011-10-08T12:31:10Z</time>
      </trkpt>
      <trkpt lat="48.99694" lon="1.0613">
        <ele>78.48</ele>
        <time>2011-10-08T12:31:25Z</time>
      </trkpt>
      <trkpt lat="48.99687" lon="1.061">
        <ele>79.93</ele>
        <time>2011-10-08T12:31:29Z</time>
      </trkpt>
      <trkpt lat="48.99678" lon="1.06083">
        <ele>78.97</ele>
        <time>2011-10-08T12:31:32Z</time>
      </trkpt>
      <trkpt lat="48.9967" lon="1.06065">
        <ele>78.97</ele>
        <time>2011-10-08T12:31:35Z</time>
      </trkpt>
      <trkpt lat="48.99662" lon="1.06046">
        <ele>79.45</ele>
        <time>2011-10-08T12:31:38Z</time>
      </trkpt>
      <trkpt lat="48.99645" lon="1.06027">
        <ele>79.45</ele>
        <time>2011-10-08T12:31:42Z</time>
      </trkpt>
      <trkpt lat="48.99611" lon="1.06003">
        <ele>80.41</ele>
        <time>2011-10-08T12:31:49Z</time>
      </trkpt>
      <trkpt lat="48.99594" lon="1.05983">
        <ele>80.41</ele>
        <time>2011-10-08T12:31:53Z</time>
      </trkpt>
      <trkpt lat="48.9953" lon="1.05852">
        <ele>80.41</ele>
        <time>2011-10-08T12:32:12Z</time>
      </trkpt>
      <trkpt lat="48.99492" lon="1.05815">
        <ele>78.97</ele>
        <time>2011-10-08T12:32:20Z</time>
      </trkpt>
      <trkpt lat="48.9947" lon="1.05779">
        <ele>79.93</ele>
        <time>2011-10-08T12:32:26Z</time>
      </trkpt>
      <trkpt lat="48.9945" lon="1.0565">
        <ele>79.93</ele>
        <time>2011-10-08T12:32:41Z</time>
      </trkpt>
      <trkpt lat="48.99451" lon="1.05594">
        <ele>81.37</ele>
        <time>2011-10-08T12:32:48Z</time>
      </trkpt>
      <trkpt lat="48.99473" lon="1.05549">
        <ele>80.41</ele>
        <time>2011-10-08T12:32:55Z</time>
      </trkpt>
      <trkpt lat="48.99499" lon="1.05516">
        <ele>81.37</ele>
        <time>2011-10-08T12:33:01Z</time>
      </trkpt>
      <trkpt lat="48.99541" lon="1.05516">
        <ele>81.37</ele>
        <time>2011-10-08T12:33:09Z</time>
      </trkpt>
      <trkpt lat="48.99543" lon="1.05578">
        <ele>82.33</ele>
        <time>2011-10-08T12:33:16Z</time>
      </trkpt>
      <trkpt lat="48.9953" lon="1.05593">
        <ele>82.81</ele>
        <time>2011-10-08T12:33:19Z</time>
      </trkpt>
      <trkpt lat="48.99495" lon="1.05612">
        <ele>86.18</ele>
        <time>2011-10-08T12:33:27Z</time>
      </trkpt>
      <trkpt lat="48.99427" lon="1.05627">
        <ele>89.06</ele>
        <time>2011-10-08T12:33:44Z</time>
      </trkpt>
      <trkpt lat="48.99384" lon="1.05632">
        <ele>84.73</ele>
        <time>2011-10-08T12:33:52Z</time>
      </trkpt>
      <trkpt lat="48.99378" lon="1.05633">
        <ele>85.21</ele>
        <time>2011-10-08T12:33:53Z</time>
      </trkpt>
      <trkpt lat="48.993" lon="1.0563">
        <ele>86.18</ele>
        <time>2011-10-08T12:34:04Z</time>
      </trkpt>
      <trkpt lat="48.99276" lon="1.05616">
        <ele>89.54</ele>
        <time>2011-10-08T12:34:12Z</time>
      </trkpt>
      <trkpt lat="48.9923" lon="1.05606">
        <ele>92.42</ele>
        <time>2011-10-08T12:34:31Z</time>
      </trkpt>
      <trkpt lat="48.99209" lon="1.05602">
        <ele>94.35</ele>
        <time>2011-10-08T12:34:40Z</time>
      </trkpt>
      <trkpt lat="48.99192" lon="1.056">
        <ele>96.27</ele>
        <time>2011-10-08T12:34:48Z</time>
      </trkpt>
      <trkpt lat="48.99164" lon="1.05612">
        <ele>99.15</ele>
        <time>2011-10-08T12:35:02Z</time>
      </trkpt>
      <trkpt lat="48.99148" lon="1.05644">
        <ele>101.08</ele>
        <time>2011-10-08T12:35:17Z</time>
      </trkpt>
      <trkpt lat="48.99124" lon="1.05655">
        <ele>103.48</ele>
        <time>2011-10-08T12:35:33Z</time>
      </trkpt>
      <trkpt lat="48.99105" lon="1.05638">
        <ele>106.84</ele>
        <time>2011-10-08T12:35:47Z</time>
      </trkpt>
      <trkpt lat="48.99103" lon="1.05634">
        <ele>106.84</ele>
        <time>2011-10-08T12:35:49Z</time>
      </trkpt>
      <trkpt lat="48.99092" lon="1.05607">
        <ele>109.25</ele>
        <time>2011-10-08T12:36:03Z</time>
      </trkpt>
      <trkpt lat="48.9908" lon="1.05592">
        <ele>111.17</ele>
        <time>2011-10-08T12:36:14Z</time>
      </trkpt>
      <trkpt lat="48.99072" lon="1.05584">
        <ele>112.13</ele>
        <time>2011-10-08T12:36:20Z</time>
      </trkpt>
      <trkpt lat="48.99055" lon="1.05572">
        <ele>113.09</ele>
        <time>2011-10-08T12:36:32Z</time>
      </trkpt>
      <trkpt lat="48.99037" lon="1.05568">
        <ele>113.57</ele>
        <time>2011-10-08T12:36:44Z</time>
      </trkpt>
      <trkpt lat="48.99015" lon="1.05565">
        <ele>115.98</ele>
        <time>2011-10-08T12:36:56Z</time>
      </trkpt>
      <trkpt lat="48.98999" lon="1.05567">
        <ele>116.94</ele>
        <time>2011-10-08T12:37:07Z</time>
      </trkpt>
      <trkpt lat="48.98992" lon="1.05569">
        <ele>117.9</ele>
        <time>2011-10-08T12:37:12Z</time>
      </trkpt>
      <trkpt lat="48.9899" lon="1.05572">
        <ele>117.9</ele>
        <time>2011-10-08T12:37:14Z</time>
      </trkpt>
      <trkpt lat="48.98976" lon="1.05578">
        <ele>120.3</ele>
        <time>2011-10-08T12:37:24Z</time>
      </trkpt>
      <trkpt lat="48.98952" lon="1.05586">
        <ele>123.19</ele>
        <time>2011-10-08T12:37:37Z</time>
      </trkpt>
      <trkpt lat="48.98931" lon="1.05597">
        <ele>124.63</ele>
        <time>2011-10-08T12:37:49Z</time>
      </trkpt>
      <trkpt lat="48.98924" lon="1.056">
        <ele>125.59</ele>
        <time>2011-10-08T12:37:54Z</time>
      </trkpt>
      <trkpt lat="48.98904" lon="1.05616">
        <ele>126.07</ele>
        <time>2011-10-08T12:38:08Z</time>
      </trkpt>
      <trkpt lat="48.98887" lon="1.05625">
        <ele>127.99</ele>
        <time>2011-10-08T12:38:21Z</time>
      </trkpt>
      <trkpt lat="48.98858" lon="1.05614">
        <ele>128.95</ele>
        <time>2011-10-08T12:38:38Z</time>
      </trkpt>
      <trkpt lat="48.98823" lon="1.05603">
        <ele>129.92</ele>
        <time>2011-10-08T12:38:57Z</time>
      </trkpt>
      <trkpt lat="48.98776" lon="1.05588">
        <ele>132.32</ele>
        <time>2011-10-08T12:39:21Z</time>
      </trkpt>
      <trkpt lat="48.98775" lon="1.05588">
        <ele>132.32</ele>
        <time>2011-10-08T12:39:22Z</time>
      </trkpt>
      <trkpt lat="48.98769" lon="1.05589">
        <ele>132.8</ele>
        <time>2011-10-08T12:39:26Z</time>
      </trkpt>
      <trkpt lat="48.98738" lon="1.05571">
        <ele>133.76</ele>
        <time>2011-10-08T12:39:40Z</time>
      </trkpt>
      <trkpt lat="48.98709" lon="1.05571">
        <ele>134.24</ele>
        <time>2011-10-08T12:39:53Z</time>
      </trkpt>
      <trkpt lat="48.9869" lon="1.05582">
        <ele>135.2</ele>
        <time>2011-10-08T12:40:03Z</time>
      </trkpt>
      <trkpt lat="48.98687" lon="1.05585">
        <ele>135.2</ele>
        <time>2011-10-08T12:40:05Z</time>
      </trkpt>
      <trkpt lat="48.98663" lon="1.056">
        <ele>135.68</ele>
        <time>2011-10-08T12:40:16Z</time>
      </trkpt>
      <trkpt lat="48.98633" lon="1.05624">
        <ele>137.13</ele>
        <time>2011-10-08T12:40:29Z</time>
      </trkpt>
      <trkpt lat="48.98607" lon="1.05651">
        <ele>137.61</ele>
        <time>2011-10-08T12:40:41Z</time>
      </trkpt>
      <trkpt lat="48.98576" lon="1.05679">
        <ele>137.61</ele>
        <time>2011-10-08T12:40:54Z</time>
      </trkpt>
      <trkpt lat="48.98547" lon="1.057">
        <ele>137.61</ele>
        <time>2011-10-08T12:41:07Z</time>
      </trkpt>
      <trkpt lat="48.9852" lon="1.05717">
        <ele>138.09</ele>
        <time>2011-10-08T12:41:19Z</time>
      </trkpt>
      <trkpt lat="48.98502" lon="1.05732">
        <ele>138.09</ele>
        <time>2011-10-08T12:41:30Z</time>
      </trkpt>
      <trkpt lat="48.98495" lon="1.05742">
        <ele>138.09</ele>
        <time>2011-10-08T12:41:41Z</time>
      </trkpt>
      <trkpt lat="48.98485" lon="1.05745">
        <ele>138.57</ele>
        <time>2011-10-08T12:41:47Z</time>
      </trkpt>
      <trkpt lat="48.9847" lon="1.05724">
        <ele>139.05</ele>
        <time>2011-10-08T12:41:58Z</time>
      </trkpt>
      <trkpt lat="48.98451" lon="1.05679">
        <ele>138.09</ele>
        <time>2011-10-08T12:42:11Z</time>
      </trkpt>
      <trkpt lat="48.98436" lon="1.0564">
        <ele>139.05</ele>
        <time>2011-10-08T12:42:22Z</time>
      </trkpt>
      <trkpt lat="48.98416" lon="1.05576">
        <ele>138.57</ele>
        <time>2011-10-08T12:42:37Z</time>
      </trkpt>
      <trkpt lat="48.98394" lon="1.05517">
        <ele>138.57</ele>
        <time>2011-10-08T12:42:52Z</time>
      </trkpt>
      <trkpt lat="48.98368" lon="1.05444">
        <ele>138.57</ele>
        <time>2011-10-08T12:43:10Z</time>
      </trkpt>
      <trkpt lat="48.98349" lon="1.05386">
        <ele>136.16</ele>
        <time>2011-10-08T12:43:25Z</time>
      </trkpt>
      <trkpt lat="48.9834" lon="1.05365">
        <ele>133.28</ele>
        <time>2011-10-08T12:43:30Z</time>
      </trkpt>
      <trkpt lat="48.98334" lon="1.05351">
        <ele>130.88</ele>
        <time>2011-10-08T12:43:33Z</time>
      </trkpt>
      <trkpt lat="48.98331" lon="1.05342">
        <ele>129.92</ele>
        <time>2011-10-08T12:43:35Z</time>
      </trkpt>
      <trkpt lat="48.98326" lon="1.05326">
        <ele>126.55</ele>
        <time>2011-10-08T12:43:39Z</time>
      </trkpt>
      <trkpt lat="48.98323" lon="1.05317">
        <ele>125.59</ele>
        <time>2011-10-08T12:43:41Z</time>
      </trkpt>
      <trkpt lat="48.98318" lon="1.05302">
        <ele>122.71</ele>
        <time>2011-10-08T12:43:44Z</time>
      </trkpt>
      <trkpt lat="48.9831" lon="1.05283">
        <ele>119.82</ele>
        <time>2011-10-08T12:43:47Z</time>
      </trkpt>
      <trkpt lat="48.98296" lon="1.05246">
        <ele>114.05</ele>
        <time>2011-10-08T12:43:53Z</time>
      </trkpt>
      <trkpt lat="48.98289" lon="1.05223">
        <ele>110.21</ele>
        <time>2011-10-08T12:43:57Z</time>
      </trkpt>
      <trkpt lat="48.98282" lon="1.05199">
        <ele>107.32</ele>
        <time>2011-10-08T12:44:01Z</time>
      </trkpt>
      <trkpt lat="48.98276" lon="1.05182">
        <ele>104.44</ele>
        <time>2011-10-08T12:44:04Z</time>
      </trkpt>
      <trkpt lat="48.98274" lon="1.05177">
        <ele>103</ele>
        <time>2011-10-08T12:44:05Z</time>
      </trkpt>
      <trkpt lat="48.98266" lon="1.05153">
        <ele>100.11</ele>
        <time>2011-10-08T12:44:09Z</time>
      </trkpt>
      <trkpt lat="48.98259" lon="1.05136">
        <ele>97.71</ele>
        <time>2011-10-08T12:44:12Z</time>
      </trkpt>
      <trkpt lat="48.98247" lon="1.0511">
        <ele>94.35</ele>
        <time>2011-10-08T12:44:17Z</time>
      </trkpt>
      <trkpt lat="48.98242" lon="1.05102">
        <ele>93.39</ele>
        <time>2011-10-08T12:44:19Z</time>
      </trkpt>
      <trkpt lat="48.98221" lon="1.05107">
        <ele>94.83</ele>
        <time>2011-10-08T12:44:27Z</time>
      </trkpt>
      <trkpt lat="48.98183" lon="1.05132">
        <ele>95.31</ele>
        <time>2011-10-08T12:44:41Z</time>
      </trkpt>
      <trkpt lat="48.98176" lon="1.05141">
        <ele>95.79</ele>
        <time>2011-10-08T12:44:44Z</time>
      </trkpt>
      <trkpt lat="48.98153" lon="1.0517">
        <ele>95.79</ele>
        <time>2011-10-08T12:44:53Z</time>
      </trkpt>
      <trkpt lat="48.98145" lon="1.05217">
        <ele>95.79</ele>
        <time>2011-10-08T12:45:05Z</time>
      </trkpt>
      <trkpt lat="48.98145" lon="1.0529">
        <ele>96.27</ele>
        <time>2011-10-08T12:45:20Z</time>
      </trkpt>
      <trkpt lat="48.98132" lon="1.0533">
        <ele>96.75</ele>
        <time>2011-10-08T12:45:31Z</time>
      </trkpt>
      <trkpt lat="48.98114" lon="1.05358">
        <ele>97.23</ele>
        <time>2011-10-08T12:45:44Z</time>
      </trkpt>
      <trkpt lat="48.98103" lon="1.05368">
        <ele>97.71</ele>
        <time>2011-10-08T12:45:49Z</time>
      </trkpt>
      <trkpt lat="48.98093" lon="1.05383">
        <ele>98.67</ele>
        <time>2011-10-08T12:45:55Z</time>
      </trkpt>
      <trkpt lat="48.98072" lon="1.05404">
        <ele>99.15</ele>
        <time>2011-10-08T12:46:07Z</time>
      </trkpt>
      <trkpt lat="48.9807" lon="1.05409">
        <ele>99.15</ele>
        <time>2011-10-08T12:46:09Z</time>
      </trkpt>
      <trkpt lat="48.98067" lon="1.05414">
        <ele>99.63</ele>
        <time>2011-10-08T12:46:11Z</time>
      </trkpt>
      <trkpt lat="48.98061" lon="1.05432">
        <ele>99.63</ele>
        <time>2011-10-08T12:46:17Z</time>
      </trkpt>
      <trkpt lat="48.98055" lon="1.05456">
        <ele>100.6</ele>
        <time>2011-10-08T12:46:26Z</time>
      </trkpt>
      <trkpt lat="48.9805" lon="1.05477">
        <ele>101.08</ele>
        <time>2011-10-08T12:46:33Z</time>
      </trkpt>
      <trkpt lat="48.98046" lon="1.05518">
        <ele>102.52</ele>
        <time>2011-10-08T12:46:47Z</time>
      </trkpt>
      <trkpt lat="48.9804" lon="1.05538">
        <ele>103</ele>
        <time>2011-10-08T12:46:55Z</time>
      </trkpt>
      <trkpt lat="48.98023" lon="1.05556">
        <ele>103.96</ele>
        <time>2011-10-08T12:47:05Z</time>
      </trkpt>
      <trkpt lat="48.98018" lon="1.0556">
        <ele>104.44</ele>
        <time>2011-10-08T12:47:09Z</time>
      </trkpt>
      <trkpt lat="48.98014" lon="1.05561">
        <ele>105.4</ele>
        <time>2011-10-08T12:47:13Z</time>
      </trkpt>
      <trkpt lat="48.97995" lon="1.05563">
        <ele>106.36</ele>
        <time>2011-10-08T12:47:26Z</time>
      </trkpt>
      <trkpt lat="48.97989" lon="1.05559">
        <ele>107.32</ele>
        <time>2011-10-08T12:47:30Z</time>
      </trkpt>
      <trkpt lat="48.97973" lon="1.05552">
        <ele>108.29</ele>
        <time>2011-10-08T12:47:44Z</time>
      </trkpt>
      <trkpt lat="48.97961" lon="1.05534">
        <ele>110.69</ele>
        <time>2011-10-08T12:48:02Z</time>
      </trkpt>
      <trkpt lat="48.97958" lon="1.05528">
        <ele>110.69</ele>
        <time>2011-10-08T12:48:05Z</time>
      </trkpt>
      <trkpt lat="48.97954" lon="1.05523">
        <ele>110.69</ele>
        <time>2011-10-08T12:48:09Z</time>
      </trkpt>
      <trkpt lat="48.97947" lon="1.05511">
        <ele>111.65</ele>
        <time>2011-10-08T12:48:21Z</time>
      </trkpt>
      <trkpt lat="48.97928" lon="1.05489">
        <ele>113.57</ele>
        <time>2011-10-08T12:48:39Z</time>
      </trkpt>
      <trkpt lat="48.97923" lon="1.05482">
        <ele>114.05</ele>
        <time>2011-10-08T12:48:44Z</time>
      </trkpt>
      <trkpt lat="48.97919" lon="1.05475">
        <ele>115.5</ele>
        <time>2011-10-08T12:48:55Z</time>
      </trkpt>
      <trkpt lat="48.97913" lon="1.05461">
        <ele>115.5</ele>
        <time>2011-10-08T12:49:05Z</time>
      </trkpt>
      <trkpt lat="48.97911" lon="1.05453">
        <ele>116.46</ele>
        <time>2011-10-08T12:49:09Z</time>
      </trkpt>
      <trkpt lat="48.97907" lon="1.05437">
        <ele>117.42</ele>
        <time>2011-10-08T12:49:16Z</time>
      </trkpt>
      <trkpt lat="48.97898" lon="1.05414">
        <ele>119.34</ele>
        <time>2011-10-08T12:49:24Z</time>
      </trkpt>
      <trkpt lat="48.97896" lon="1.05404">
        <ele>119.82</ele>
        <time>2011-10-08T12:49:28Z</time>
      </trkpt>
      <trkpt lat="48.97888" lon="1.05375">
        <ele>121.26</ele>
        <time>2011-10-08T12:49:37Z</time>
      </trkpt>
      <trkpt lat="48.97887" lon="1.05367">
        <ele>122.22</ele>
        <time>2011-10-08T12:49:41Z</time>
      </trkpt>
      <trkpt lat="48.97881" lon="1.0535">
        <ele>122.71</ele>
        <time>2011-10-08T12:49:48Z</time>
      </trkpt>
      <trkpt lat="48.97879" lon="1.05339">
        <ele>121.26</ele>
        <time>2011-10-08T12:49:55Z</time>
      </trkpt>
      <trkpt lat="48.97874" lon="1.05329">
        <ele>122.22</ele>
        <time>2011-10-08T12:50:07Z</time>
      </trkpt>
      <trkpt lat="48.97871" lon="1.05312">
        <ele>123.19</ele>
        <time>2011-10-08T12:50:24Z</time>
      </trkpt>
      <trkpt lat="48.97866" lon="1.05295">
        <ele>124.15</ele>
        <time>2011-10-08T12:50:29Z</time>
      </trkpt>
      <trkpt lat="48.97864" lon="1.05285">
        <ele>125.11</ele>
        <time>2011-10-08T12:50:33Z</time>
      </trkpt>
      <trkpt lat="48.97865" lon="1.05271">
        <ele>125.11</ele>
        <time>2011-10-08T12:50:40Z</time>
      </trkpt>
      <trkpt lat="48.97857" lon="1.05227">
        <ele>126.07</ele>
        <time>2011-10-08T12:50:55Z</time>
      </trkpt>
      <trkpt lat="48.97854" lon="1.05202">
        <ele>127.99</ele>
        <time>2011-10-08T12:51:05Z</time>
      </trkpt>
      <trkpt lat="48.97842" lon="1.05158">
        <ele>128.95</ele>
        <time>2011-10-08T12:51:19Z</time>
      </trkpt>
      <trkpt lat="48.97838" lon="1.05117">
        <ele>130.88</ele>
        <time>2011-10-08T12:51:32Z</time>
      </trkpt>
      <trkpt lat="48.97843" lon="1.05085">
        <ele>132.32</ele>
        <time>2011-10-08T12:51:43Z</time>
      </trkpt>
      <trkpt lat="48.97847" lon="1.05046">
        <ele>134.24</ele>
        <time>2011-10-08T12:51:57Z</time>
      </trkpt>
      <trkpt lat="48.9785" lon="1.05031">
        <ele>135.2</ele>
        <time>2011-10-08T12:52:04Z</time>
      </trkpt>
      <trkpt lat="48.97852" lon="1.05025">
        <ele>135.68</ele>
        <time>2011-10-08T12:52:06Z</time>
      </trkpt>
      <trkpt lat="48.9786" lon="1.05009">
        <ele>135.68</ele>
        <time>2011-10-08T12:52:14Z</time>
      </trkpt>
      <trkpt lat="48.97863" lon="1.05004">
        <ele>136.16</ele>
        <time>2011-10-08T12:52:17Z</time>
      </trkpt>
      <trkpt lat="48.97868" lon="1.04984">
        <ele>136.64</ele>
        <time>2011-10-08T12:52:25Z</time>
      </trkpt>
      <trkpt lat="48.97872" lon="1.04973">
        <ele>136.64</ele>
        <time>2011-10-08T12:52:30Z</time>
      </trkpt>
      <trkpt lat="48.97878" lon="1.04967">
        <ele>136.64</ele>
        <time>2011-10-08T12:52:33Z</time>
      </trkpt>
      <trkpt lat="48.97887" lon="1.04936">
        <ele>137.13</ele>
        <time>2011-10-08T12:52:46Z</time>
      </trkpt>
      <trkpt lat="48.9789" lon="1.04922">
        <ele>137.13</ele>
        <time>2011-10-08T12:52:50Z</time>
      </trkpt>
      <trkpt lat="48.97904" lon="1.04896">
        <ele>138.09</ele>
        <time>2011-10-08T12:53:02Z</time>
      </trkpt>
      <trkpt lat="48.97931" lon="1.0487">
        <ele>137.61</ele>
        <time>2011-10-08T12:53:14Z</time>
      </trkpt>
      <trkpt lat="48.97943" lon="1.04855">
        <ele>137.61</ele>
        <time>2011-10-08T12:53:21Z</time>
      </trkpt>
      <trkpt lat="48.97953" lon="1.04844">
        <ele>137.61</ele>
        <time>2011-10-08T12:53:26Z</time>
      </trkpt>
      <trkpt lat="48.97974" lon="1.04821">
        <ele>137.61</ele>
        <time>2011-10-08T12:53:39Z</time>
      </trkpt>
      <trkpt lat="48.97972" lon="1.04801">
        <ele>139.53</ele>
        <time>2011-10-08T12:53:48Z</time>
      </trkpt>
      <trkpt lat="48.97971" lon="1.04794">
        <ele>138.57</ele>
        <time>2011-10-08T12:53:52Z</time>
      </trkpt>
      <trkpt lat="48.97962" lon="1.04751">
        <ele>139.05</ele>
        <time>2011-10-08T12:54:09Z</time>
      </trkpt>
      <trkpt lat="48.97947" lon="1.04745">
        <ele>138.57</ele>
        <time>2011-10-08T12:54:23Z</time>
      </trkpt>
      <trkpt lat="48.97941" lon="1.04742">
        <ele>140.01</ele>
        <time>2011-10-08T12:54:29Z</time>
      </trkpt>
      <trkpt lat="48.97927" lon="1.04737">
        <ele>138.57</ele>
        <time>2011-10-08T12:54:37Z</time>
      </trkpt>
      <trkpt lat="48.97899" lon="1.04743">
        <ele>139.53</ele>
        <time>2011-10-08T12:54:50Z</time>
      </trkpt>
      <trkpt lat="48.97864" lon="1.04748">
        <ele>140.49</ele>
        <time>2011-10-08T12:55:04Z</time>
      </trkpt>
      <trkpt lat="48.97828" lon="1.04758">
        <ele>140.49</ele>
        <time>2011-10-08T12:55:17Z</time>
      </trkpt>
      <trkpt lat="48.978" lon="1.0476">
        <ele>140.49</ele>
        <time>2011-10-08T12:55:27Z</time>
      </trkpt>
      <trkpt lat="48.97786" lon="1.04761">
        <ele>140.97</ele>
        <time>2011-10-08T12:55:33Z</time>
      </trkpt>
      <trkpt lat="48.97773" lon="1.0476">
        <ele>141.93</ele>
        <time>2011-10-08T12:55:39Z</time>
      </trkpt>
      <trkpt lat="48.97745" lon="1.04767">
        <ele>140.97</ele>
        <time>2011-10-08T12:55:49Z</time>
      </trkpt>
      <trkpt lat="48.9772" lon="1.0477">
        <ele>141.45</ele>
        <time>2011-10-08T12:55:59Z</time>
      </trkpt>
      <trkpt lat="48.97713" lon="1.04772">
        <ele>140.97</ele>
        <time>2011-10-08T12:56:01Z</time>
      </trkpt>
      <trkpt lat="48.97679" lon="1.0478">
        <ele>142.41</ele>
        <time>2011-10-08T12:56:13Z</time>
      </trkpt>
      <trkpt lat="48.9767" lon="1.04778">
        <ele>142.89</ele>
        <time>2011-10-08T12:56:17Z</time>
      </trkpt>
      <trkpt lat="48.97638" lon="1.04773">
        <ele>142.89</ele>
        <time>2011-10-08T12:56:29Z</time>
      </trkpt>
      <trkpt lat="48.97607" lon="1.04747">
        <ele>142.89</ele>
        <time>2011-10-08T12:56:42Z</time>
      </trkpt>
      <trkpt lat="48.97592" lon="1.04758">
        <ele>141.93</ele>
        <time>2011-10-08T12:56:50Z</time>
      </trkpt>
      <trkpt lat="48.97553" lon="1.04809">
        <ele>141.93</ele>
        <time>2011-10-08T12:57:07Z</time>
      </trkpt>
      <trkpt lat="48.97511" lon="1.04887">
        <ele>142.41</ele>
        <time>2011-10-08T12:57:25Z</time>
      </trkpt>
      <trkpt lat="48.97461" lon="1.04981">
        <ele>141.45</ele>
        <time>2011-10-08T12:57:46Z</time>
      </trkpt>
      <trkpt lat="48.97413" lon="1.05067">
        <ele>141.93</ele>
        <time>2011-10-08T12:58:05Z</time>
      </trkpt>
      <trkpt lat="48.97395" lon="1.05095">
        <ele>142.41</ele>
        <time>2011-10-08T12:58:12Z</time>
      </trkpt>
      <trkpt lat="48.97383" lon="1.05087">
        <ele>142.41</ele>
        <time>2011-10-08T12:58:20Z</time>
      </trkpt>
      <trkpt lat="48.97369" lon="1.05005">
        <ele>142.41</ele>
        <time>2011-10-08T12:58:36Z</time>
      </trkpt>
      <trkpt lat="48.97368" lon="1.04999">
        <ele>142.89</ele>
        <time>2011-10-08T12:58:37Z</time>
      </trkpt>
      <trkpt lat="48.97358" lon="1.04957">
        <ele>142.41</ele>
        <time>2011-10-08T12:58:44Z</time>
      </trkpt>
      <trkpt lat="48.97352" lon="1.04932">
        <ele>143.37</ele>
        <time>2011-10-08T12:58:48Z</time>
      </trkpt>
      <trkpt lat="48.97345" lon="1.04907">
        <ele>142.41</ele>
        <time>2011-10-08T12:58:51Z</time>
      </trkpt>
      <trkpt lat="48.97317" lon="1.04794">
        <ele>141.45</ele>
        <time>2011-10-08T12:59:06Z</time>
      </trkpt>
      <trkpt lat="48.97307" lon="1.04732">
        <ele>140.97</ele>
        <time>2011-10-08T12:59:14Z</time>
      </trkpt>
      <trkpt lat="48.97297" lon="1.04687">
        <ele>140.49</ele>
        <time>2011-10-08T12:59:20Z</time>
      </trkpt>
      <trkpt lat="48.97288" lon="1.04655">
        <ele>140.01</ele>
        <time>2011-10-08T12:59:24Z</time>
      </trkpt>
      <trkpt lat="48.97282" lon="1.04626">
        <ele>140.01</ele>
        <time>2011-10-08T12:59:28Z</time>
      </trkpt>
      <trkpt lat="48.9728" lon="1.04612">
        <ele>140.97</ele>
        <time>2011-10-08T12:59:30Z</time>
      </trkpt>
      <trkpt lat="48.97274" lon="1.0455">
        <ele>140.49</ele>
        <time>2011-10-08T12:59:41Z</time>
      </trkpt>
      <trkpt lat="48.97274" lon="1.0454">
        <ele>140.97</ele>
        <time>2011-10-08T12:59:43Z</time>
      </trkpt>
      <trkpt lat="48.97261" lon="1.04466">
        <ele>140.49</ele>
        <time>2011-10-08T12:59:55Z</time>
      </trkpt>
      <trkpt lat="48.97249" lon="1.0441">
        <ele>140.97</ele>
        <time>2011-10-08T13:00:06Z</time>
      </trkpt>
      <trkpt lat="48.97246" lon="1.04406">
        <ele>140.01</ele>
        <time>2011-10-08T13:00:09Z</time>
      </trkpt>
      <trkpt lat="48.97233" lon="1.04408">
        <ele>140.49</ele>
        <time>2011-10-08T13:00:26Z</time>
      </trkpt>
      <trkpt lat="48.97232" lon="1.04407">
        <ele>140.01</ele>
        <time>2011-10-08T13:00:41Z</time>
      </trkpt>
      <trkpt lat="48.97229" lon="1.0441">
        <ele>139.05</ele>
        <time>2011-10-08T13:00:53Z</time>
      </trkpt>
      <trkpt lat="48.97227" lon="1.04411">
        <ele>139.05</ele>
        <time>2011-10-08T13:00:57Z</time>
      </trkpt>
      <trkpt lat="48.9722" lon="1.04413">
        <ele>140.01</ele>
        <time>2011-10-08T13:01:00Z</time>
      </trkpt>
      <trkpt lat="48.97209" lon="1.04415">
        <ele>139.53</ele>
        <time>2011-10-08T13:01:04Z</time>
      </trkpt>
      <trkpt lat="48.97167" lon="1.04437">
        <ele>139.05</ele>
        <time>2011-10-08T13:01:17Z</time>
      </trkpt>
      <trkpt lat="48.97133" lon="1.04462">
        <ele>137.61</ele>
        <time>2011-10-08T13:01:27Z</time>
      </trkpt>
      <trkpt lat="48.97115" lon="1.04473">
        <ele>137.13</ele>
        <time>2011-10-08T13:01:32Z</time>
      </trkpt>
      <trkpt lat="48.97063" lon="1.04507">
        <ele>136.64</ele>
        <time>2011-10-08T13:01:43Z</time>
      </trkpt>
      <trkpt lat="48.97054" lon="1.04513">
        <ele>136.64</ele>
        <time>2011-10-08T13:01:45Z</time>
      </trkpt>
      <trkpt lat="48.97032" lon="1.0453">
        <ele>137.13</ele>
        <time>2011-10-08T13:01:50Z</time>
      </trkpt>
      <trkpt lat="48.96999" lon="1.04549">
        <ele>135.68</ele>
        <time>2011-10-08T13:01:57Z</time>
      </trkpt>
      <trkpt lat="48.96975" lon="1.04559">
        <ele>136.16</ele>
        <time>2011-10-08T13:02:02Z</time>
      </trkpt>
      <trkpt lat="48.96936" lon="1.04585">
        <ele>135.68</ele>
        <time>2011-10-08T13:02:10Z</time>
      </trkpt>
      <trkpt lat="48.96915" lon="1.04605">
        <ele>135.68</ele>
        <time>2011-10-08T13:02:15Z</time>
      </trkpt>
      <trkpt lat="48.96891" lon="1.04618">
        <ele>136.16</ele>
        <time>2011-10-08T13:02:20Z</time>
      </trkpt>
      <trkpt lat="48.96875" lon="1.04623">
        <ele>135.68</ele>
        <time>2011-10-08T13:02:23Z</time>
      </trkpt>
      <trkpt lat="48.96866" lon="1.04628">
        <ele>135.2</ele>
        <time>2011-10-08T13:02:25Z</time>
      </trkpt>
      <trkpt lat="48.96857" lon="1.04637">
        <ele>135.68</ele>
        <time>2011-10-08T13:02:27Z</time>
      </trkpt>
      <trkpt lat="48.96843" lon="1.04647">
        <ele>135.2</ele>
        <time>2011-10-08T13:02:30Z</time>
      </trkpt>
      <trkpt lat="48.96825" lon="1.0466">
        <ele>135.2</ele>
        <time>2011-10-08T13:02:34Z</time>
      </trkpt>
      <trkpt lat="48.96769" lon="1.04696">
        <ele>135.2</ele>
        <time>2011-10-08T13:02:45Z</time>
      </trkpt>
      <trkpt lat="48.96758" lon="1.04699">
        <ele>135.2</ele>
        <time>2011-10-08T13:02:47Z</time>
      </trkpt>
      <trkpt lat="48.96744" lon="1.04708">
        <ele>135.2</ele>
        <time>2011-10-08T13:02:50Z</time>
      </trkpt>
      <trkpt lat="48.96707" lon="1.04743">
        <ele>135.68</ele>
        <time>2011-10-08T13:03:00Z</time>
      </trkpt>
      <trkpt lat="48.96688" lon="1.04757">
        <ele>134.72</ele>
        <time>2011-10-08T13:03:05Z</time>
      </trkpt>
      <trkpt lat="48.96665" lon="1.04772">
        <ele>134.72</ele>
        <time>2011-10-08T13:03:10Z</time>
      </trkpt>
      <trkpt lat="48.96611" lon="1.04808">
        <ele>134.24</ele>
        <time>2011-10-08T13:03:23Z</time>
      </trkpt>
      <trkpt lat="48.96585" lon="1.04825">
        <ele>133.76</ele>
        <time>2011-10-08T13:03:34Z</time>
      </trkpt>
      <trkpt lat="48.96579" lon="1.04823">
        <ele>132.8</ele>
        <time>2011-10-08T13:03:39Z</time>
      </trkpt>
      <trkpt lat="48.96576" lon="1.04832">
        <ele>132.8</ele>
        <time>2011-10-08T13:03:43Z</time>
      </trkpt>
      <trkpt lat="48.96561" lon="1.04872">
        <ele>134.72</ele>
        <time>2011-10-08T13:03:55Z</time>
      </trkpt>
      <trkpt lat="48.96558" lon="1.0488">
        <ele>134.24</ele>
        <time>2011-10-08T13:04:00Z</time>
      </trkpt>
      <trkpt lat="48.96546" lon="1.04864">
        <ele>133.76</ele>
        <time>2011-10-08T13:04:08Z</time>
      </trkpt>
      <trkpt lat="48.96527" lon="1.04872">
        <ele>134.24</ele>
        <time>2011-10-08T13:04:18Z</time>
      </trkpt>
      <trkpt lat="48.9652" lon="1.04874">
        <ele>134.72</ele>
        <time>2011-10-08T13:04:21Z</time>
      </trkpt>
      <trkpt lat="48.96488" lon="1.04889">
        <ele>134.72</ele>
        <time>2011-10-08T13:04:34Z</time>
      </trkpt>
      <trkpt lat="48.9646" lon="1.04906">
        <ele>134.72</ele>
        <time>2011-10-08T13:04:46Z</time>
      </trkpt>
      <trkpt lat="48.96434" lon="1.04922">
        <ele>134.24</ele>
        <time>2011-10-08T13:04:56Z</time>
      </trkpt>
      <trkpt lat="48.96408" lon="1.04939">
        <ele>135.2</ele>
        <time>2011-10-08T13:05:07Z</time>
      </trkpt>
      <trkpt lat="48.96379" lon="1.04953">
        <ele>134.72</ele>
        <time>2011-10-08T13:05:17Z</time>
      </trkpt>
      <trkpt lat="48.96349" lon="1.04977">
        <ele>134.24</ele>
        <time>2011-10-08T13:05:29Z</time>
      </trkpt>
      <trkpt lat="48.96347" lon="1.04979">
        <ele>133.76</ele>
        <time>2011-10-08T13:05:30Z</time>
      </trkpt>
      <trkpt lat="48.9633" lon="1.05012">
        <ele>133.28</ele>
        <time>2011-10-08T13:05:40Z</time>
      </trkpt>
      <trkpt lat="48.96323" lon="1.05023">
        <ele>133.28</ele>
        <time>2011-10-08T13:05:43Z</time>
      </trkpt>
      <trkpt lat="48.9629" lon="1.05042">
        <ele>133.28</ele>
        <time>2011-10-08T13:05:54Z</time>
      </trkpt>
      <trkpt lat="48.96281" lon="1.05043">
        <ele>134.72</ele>
        <time>2011-10-08T13:05:59Z</time>
      </trkpt>
      <trkpt lat="48.9626" lon="1.05052">
        <ele>134.72</ele>
        <time>2011-10-08T13:06:09Z</time>
      </trkpt>
      <trkpt lat="48.96254" lon="1.05055">
        <ele>135.2</ele>
        <time>2011-10-08T13:06:11Z</time>
      </trkpt>
      <trkpt lat="48.96238" lon="1.05065">
        <ele>134.72</ele>
        <time>2011-10-08T13:06:17Z</time>
      </trkpt>
      <trkpt lat="48.96225" lon="1.0507">
        <ele>135.2</ele>
        <time>2011-10-08T13:06:23Z</time>
      </trkpt>
      <trkpt lat="48.96212" lon="1.05062">
        <ele>135.2</ele>
        <time>2011-10-08T13:06:30Z</time>
      </trkpt>
      <trkpt lat="48.96185" lon="1.05045">
        <ele>135.2</ele>
        <time>2011-10-08T13:06:42Z</time>
      </trkpt>
      <trkpt lat="48.96166" lon="1.05037">
        <ele>134.72</ele>
        <time>2011-10-08T13:06:50Z</time>
      </trkpt>
      <trkpt lat="48.96135" lon="1.05027">
        <ele>135.2</ele>
        <time>2011-10-08T13:07:01Z</time>
      </trkpt>
      <trkpt lat="48.96109" lon="1.05026">
        <ele>134.72</ele>
        <time>2011-10-08T13:07:10Z</time>
      </trkpt>
      <trkpt lat="48.96086" lon="1.05028">
        <ele>134.24</ele>
        <time>2011-10-08T13:07:19Z</time>
      </trkpt>
      <trkpt lat="48.96083" lon="1.05028">
        <ele>133.76</ele>
        <time>2011-10-08T13:07:20Z</time>
      </trkpt>
      <trkpt lat="48.96054" lon="1.05026">
        <ele>132.8</ele>
        <time>2011-10-08T13:07:31Z</time>
      </trkpt>
      <trkpt lat="48.96048" lon="1.05023">
        <ele>131.84</ele>
        <time>2011-10-08T13:07:33Z</time>
      </trkpt>
      <trkpt lat="48.96007" lon="1.05001">
        <ele>131.36</ele>
        <time>2011-10-08T13:07:43Z</time>
      </trkpt>
      <trkpt lat="48.95979" lon="1.04986">
        <ele>132.32</ele>
        <time>2011-10-08T13:07:56Z</time>
      </trkpt>
      <trkpt lat="48.95953" lon="1.04983">
        <ele>133.76</ele>
        <time>2011-10-08T13:08:10Z</time>
      </trkpt>
      <trkpt lat="48.95927" lon="1.04978">
        <ele>133.76</ele>
        <time>2011-10-08T13:08:21Z</time>
      </trkpt>
      <trkpt lat="48.95902" lon="1.04973">
        <ele>131.84</ele>
        <time>2011-10-08T13:08:32Z</time>
      </trkpt>
      <trkpt lat="48.95899" lon="1.04972">
        <ele>131.84</ele>
        <time>2011-10-08T13:08:33Z</time>
      </trkpt>
      <trkpt lat="48.95858" lon="1.04959">
        <ele>130.88</ele>
        <time>2011-10-08T13:08:45Z</time>
      </trkpt>
      <trkpt lat="48.95817" lon="1.04947">
        <ele>129.43</ele>
        <time>2011-10-08T13:08:57Z</time>
      </trkpt>
      <trkpt lat="48.95788" lon="1.0493">
        <ele>126.55</ele>
        <time>2011-10-08T13:09:09Z</time>
      </trkpt>
      <trkpt lat="48.95781" lon="1.04923">
        <ele>125.11</ele>
        <time>2011-10-08T13:09:13Z</time>
      </trkpt>
      <trkpt lat="48.95769" lon="1.04908">
        <ele>123.19</ele>
        <time>2011-10-08T13:09:20Z</time>
      </trkpt>
      <trkpt lat="48.95749" lon="1.04878">
        <ele>121.26</ele>
        <time>2011-10-08T13:09:28Z</time>
      </trkpt>
      <trkpt lat="48.95734" lon="1.04855">
        <ele>118.86</ele>
        <time>2011-10-08T13:09:37Z</time>
      </trkpt>
      <trkpt lat="48.95728" lon="1.04849">
        <ele>118.86</ele>
        <time>2011-10-08T13:09:41Z</time>
      </trkpt>
      <trkpt lat="48.95711" lon="1.04819">
        <ele>116.46</ele>
        <time>2011-10-08T13:09:53Z</time>
      </trkpt>
      <trkpt lat="48.95701" lon="1.04806">
        <ele>114.53</ele>
        <time>2011-10-08T13:09:57Z</time>
      </trkpt>
      <trkpt lat="48.95682" lon="1.04775">
        <ele>112.13</ele>
        <time>2011-10-08T13:10:06Z</time>
      </trkpt>
      <trkpt lat="48.95675" lon="1.04765">
        <ele>110.69</ele>
        <time>2011-10-08T13:10:09Z</time>
      </trkpt>
      <trkpt lat="48.95651" lon="1.04733">
        <ele>107.32</ele>
        <time>2011-10-08T13:10:16Z</time>
      </trkpt>
      <trkpt lat="48.95648" lon="1.04729">
        <ele>106.36</ele>
        <time>2011-10-08T13:10:17Z</time>
      </trkpt>
      <trkpt lat="48.95631" lon="1.04713">
        <ele>105.88</ele>
        <time>2011-10-08T13:10:22Z</time>
      </trkpt>
      <trkpt lat="48.9562" lon="1.04703">
        <ele>103.48</ele>
        <time>2011-10-08T13:10:25Z</time>
      </trkpt>
      <trkpt lat="48.95607" lon="1.04692">
        <ele>103.48</ele>
        <time>2011-10-08T13:10:28Z</time>
      </trkpt>
      <trkpt lat="48.95572" lon="1.04684">
        <ele>101.08</ele>
        <time>2011-10-08T13:10:34Z</time>
      </trkpt>
      <trkpt lat="48.95558" lon="1.04699">
        <ele>98.67</ele>
        <time>2011-10-08T13:10:39Z</time>
      </trkpt>
      <trkpt lat="48.95531" lon="1.0473">
        <ele>96.75</ele>
        <time>2011-10-08T13:10:47Z</time>
      </trkpt>
      <trkpt lat="48.95522" lon="1.04754">
        <ele>95.79</ele>
        <time>2011-10-08T13:10:51Z</time>
      </trkpt>
      <trkpt lat="48.95512" lon="1.04778">
        <ele>95.31</ele>
        <time>2011-10-08T13:10:55Z</time>
      </trkpt>
      <trkpt lat="48.95488" lon="1.04828">
        <ele>94.35</ele>
        <time>2011-10-08T13:11:04Z</time>
      </trkpt>
      <trkpt lat="48.95475" lon="1.0485">
        <ele>94.35</ele>
        <time>2011-10-08T13:11:08Z</time>
      </trkpt>
      <trkpt lat="48.95449" lon="1.04909">
        <ele>94.35</ele>
        <time>2011-10-08T13:11:19Z</time>
      </trkpt>
      <trkpt lat="48.95442" lon="1.04925">
        <ele>93.87</ele>
        <time>2011-10-08T13:11:22Z</time>
      </trkpt>
      <trkpt lat="48.95417" lon="1.04992">
        <ele>93.87</ele>
        <time>2011-10-08T13:11:35Z</time>
      </trkpt>
      <trkpt lat="48.954" lon="1.05048">
        <ele>93.87</ele>
        <time>2011-10-08T13:11:46Z</time>
      </trkpt>
      <trkpt lat="48.95388" lon="1.05098">
        <ele>94.83</ele>
        <time>2011-10-08T13:11:56Z</time>
      </trkpt>
      <trkpt lat="48.95375" lon="1.05158">
        <ele>92.9</ele>
        <time>2011-10-08T13:12:07Z</time>
      </trkpt>
      <trkpt lat="48.95371" lon="1.05178">
        <ele>93.39</ele>
        <time>2011-10-08T13:12:10Z</time>
      </trkpt>
      <trkpt lat="48.95339" lon="1.05254">
        <ele>93.39</ele>
        <time>2011-10-08T13:12:25Z</time>
      </trkpt>
      <trkpt lat="48.95327" lon="1.05292">
        <ele>93.39</ele>
        <time>2011-10-08T13:12:32Z</time>
      </trkpt>
      <trkpt lat="48.95297" lon="1.05347">
        <ele>93.39</ele>
        <time>2011-10-08T13:12:45Z</time>
      </trkpt>
      <trkpt lat="48.95271" lon="1.0541">
        <ele>93.87</ele>
        <time>2011-10-08T13:12:59Z</time>
      </trkpt>
      <trkpt lat="48.95258" lon="1.05456">
        <ele>94.83</ele>
        <time>2011-10-08T13:13:10Z</time>
      </trkpt>
      <trkpt lat="48.95259" lon="1.05484">
        <ele>96.75</ele>
        <time>2011-10-08T13:13:18Z</time>
      </trkpt>
      <trkpt lat="48.95259" lon="1.05487">
        <ele>96.75</ele>
        <time>2011-10-08T13:13:19Z</time>
      </trkpt>
      <trkpt lat="48.9526" lon="1.05498">
        <ele>98.67</ele>
        <time>2011-10-08T13:13:24Z</time>
      </trkpt>
      <trkpt lat="48.9526" lon="1.05528">
        <ele>101.08</ele>
        <time>2011-10-08T13:13:34Z</time>
      </trkpt>
      <trkpt lat="48.95248" lon="1.05554">
        <ele>100.6</ele>
        <time>2011-10-08T13:13:45Z</time>
      </trkpt>
      <trkpt lat="48.95231" lon="1.05566">
        <ele>97.71</ele>
        <time>2011-10-08T13:13:51Z</time>
      </trkpt>
      <trkpt lat="48.95214" lon="1.05579">
        <ele>95.31</ele>
        <time>2011-10-08T13:13:56Z</time>
      </trkpt>
      <trkpt lat="48.952" lon="1.05589">
        <ele>94.35</ele>
        <time>2011-10-08T13:14:00Z</time>
      </trkpt>
      <trkpt lat="48.95193" lon="1.05593">
        <ele>94.35</ele>
        <time>2011-10-08T13:14:02Z</time>
      </trkpt>
      <trkpt lat="48.9519" lon="1.05611">
        <ele>94.83</ele>
        <time>2011-10-08T13:14:10Z</time>
      </trkpt>
      <trkpt lat="48.95189" lon="1.05619">
        <ele>95.31</ele>
        <time>2011-10-08T13:14:13Z</time>
      </trkpt>
      <trkpt lat="48.95188" lon="1.0563">
        <ele>95.79</ele>
        <time>2011-10-08T13:14:20Z</time>
      </trkpt>
      <trkpt lat="48.95163" lon="1.05644">
        <ele>94.83</ele>
        <time>2011-10-08T13:14:41Z</time>
      </trkpt>
      <trkpt lat="48.95147" lon="1.05649">
        <ele>94.35</ele>
        <time>2011-10-08T13:14:53Z</time>
      </trkpt>
      <trkpt lat="48.95142" lon="1.05649">
        <ele>93.87</ele>
        <time>2011-10-08T13:14:54Z</time>
      </trkpt>
      <trkpt lat="48.95117" lon="1.05643">
        <ele>93.39</ele>
        <time>2011-10-08T13:15:05Z</time>
      </trkpt>
      <trkpt lat="48.95109" lon="1.05638">
        <ele>93.39</ele>
        <time>2011-10-08T13:15:08Z</time>
      </trkpt>
      <trkpt lat="48.95093" lon="1.05627">
        <ele>94.35</ele>
        <time>2011-10-08T13:15:13Z</time>
      </trkpt>
      <trkpt lat="48.95048" lon="1.05622">
        <ele>94.83</ele>
        <time>2011-10-08T13:15:22Z</time>
      </trkpt>
      <trkpt lat="48.94991" lon="1.05616">
        <ele>95.31</ele>
        <time>2011-10-08T13:15:32Z</time>
      </trkpt>
      <trkpt lat="48.9497" lon="1.05616">
        <ele>97.71</ele>
        <time>2011-10-08T13:15:43Z</time>
      </trkpt>
      <trkpt lat="48.94959" lon="1.05619">
        <ele>99.15</ele>
        <time>2011-10-08T13:15:47Z</time>
      </trkpt>
      <trkpt lat="48.94946" lon="1.05618">
        <ele>100.6</ele>
        <time>2011-10-08T13:15:52Z</time>
      </trkpt>
      <trkpt lat="48.94925" lon="1.05614">
        <ele>102.52</ele>
        <time>2011-10-08T13:16:05Z</time>
      </trkpt>
      <trkpt lat="48.94914" lon="1.05609">
        <ele>103.48</ele>
        <time>2011-10-08T13:16:12Z</time>
      </trkpt>
      <trkpt lat="48.94881" lon="1.05596">
        <ele>103</ele>
        <time>2011-10-08T13:16:25Z</time>
      </trkpt>
      <trkpt lat="48.94848" lon="1.0557">
        <ele>103</ele>
        <time>2011-10-08T13:16:39Z</time>
      </trkpt>
      <trkpt lat="48.94839" lon="1.05564">
        <ele>104.92</ele>
        <time>2011-10-08T13:16:43Z</time>
      </trkpt>
      <trkpt lat="48.94813" lon="1.05543">
        <ele>103.96</ele>
        <time>2011-10-08T13:16:53Z</time>
      </trkpt>
      <trkpt lat="48.94782" lon="1.0551">
        <ele>103.48</ele>
        <time>2011-10-08T13:17:05Z</time>
      </trkpt>
      <trkpt lat="48.9476" lon="1.05482">
        <ele>103.48</ele>
        <time>2011-10-08T13:17:14Z</time>
      </trkpt>
      <trkpt lat="48.94741" lon="1.05467">
        <ele>103.96</ele>
        <time>2011-10-08T13:17:23Z</time>
      </trkpt>
      <trkpt lat="48.94708" lon="1.05435">
        <ele>103.48</ele>
        <time>2011-10-08T13:17:36Z</time>
      </trkpt>
      <trkpt lat="48.94679" lon="1.05402">
        <ele>103.96</ele>
        <time>2011-10-08T13:17:48Z</time>
      </trkpt>
      <trkpt lat="48.94658" lon="1.05366">
        <ele>103.96</ele>
        <time>2011-10-08T13:17:58Z</time>
      </trkpt>
      <trkpt lat="48.94651" lon="1.0535">
        <ele>103.96</ele>
        <time>2011-10-08T13:18:04Z</time>
      </trkpt>
      <trkpt lat="48.94645" lon="1.05337">
        <ele>103.96</ele>
        <time>2011-10-08T13:18:08Z</time>
      </trkpt>
      <trkpt lat="48.94626" lon="1.05302">
        <ele>105.4</ele>
        <time>2011-10-08T13:18:17Z</time>
      </trkpt>
      <trkpt lat="48.94606" lon="1.05264">
        <ele>105.88</ele>
        <time>2011-10-08T13:18:29Z</time>
      </trkpt>
      <trkpt lat="48.94594" lon="1.05224">
        <ele>107.32</ele>
        <time>2011-10-08T13:18:44Z</time>
      </trkpt>
      <trkpt lat="48.94585" lon="1.052">
        <ele>107.81</ele>
        <time>2011-10-08T13:18:55Z</time>
      </trkpt>
      <trkpt lat="48.9458" lon="1.05183">
        <ele>106.36</ele>
        <time>2011-10-08T13:18:59Z</time>
      </trkpt>
      <trkpt lat="48.94567" lon="1.05185">
        <ele>108.29</ele>
        <time>2011-10-08T13:19:08Z</time>
      </trkpt>
      <trkpt lat="48.9457" lon="1.05211">
        <ele>109.73</ele>
        <time>2011-10-08T13:19:21Z</time>
      </trkpt>
      <trkpt lat="48.94568" lon="1.05221">
        <ele>110.21</ele>
        <time>2011-10-08T13:19:26Z</time>
      </trkpt>
      <trkpt lat="48.94564" lon="1.0524">
        <ele>112.13</ele>
        <time>2011-10-08T13:19:36Z</time>
      </trkpt>
      <trkpt lat="48.94564" lon="1.05252">
        <ele>112.61</ele>
        <time>2011-10-08T13:19:41Z</time>
      </trkpt>
      <trkpt lat="48.94564" lon="1.05284">
        <ele>114.05</ele>
        <time>2011-10-08T13:19:56Z</time>
      </trkpt>
      <trkpt lat="48.9457" lon="1.05306">
        <ele>115.5</ele>
        <time>2011-10-08T13:20:05Z</time>
      </trkpt>
      <trkpt lat="48.94571" lon="1.0532">
        <ele>116.46</ele>
        <time>2011-10-08T13:20:11Z</time>
      </trkpt>
      <trkpt lat="48.94572" lon="1.05341">
        <ele>118.38</ele>
        <time>2011-10-08T13:20:20Z</time>
      </trkpt>
      <trkpt lat="48.94575" lon="1.05367">
        <ele>120.3</ele>
        <time>2011-10-08T13:20:34Z</time>
      </trkpt>
      <trkpt lat="48.94577" lon="1.05372">
        <ele>120.78</ele>
        <time>2011-10-08T13:20:36Z</time>
      </trkpt>
      <trkpt lat="48.9458" lon="1.05384">
        <ele>121.26</ele>
        <time>2011-10-08T13:20:41Z</time>
      </trkpt>
      <trkpt lat="48.9458" lon="1.05395">
        <ele>122.22</ele>
        <time>2011-10-08T13:20:45Z</time>
      </trkpt>
      <trkpt lat="48.9458" lon="1.05401">
        <ele>122.22</ele>
        <time>2011-10-08T13:20:47Z</time>
      </trkpt>
      <trkpt lat="48.94585" lon="1.05436">
        <ele>124.63</ele>
        <time>2011-10-08T13:21:03Z</time>
      </trkpt>
      <trkpt lat="48.94588" lon="1.05445">
        <ele>124.63</ele>
        <time>2011-10-08T13:21:08Z</time>
      </trkpt>
      <trkpt lat="48.94588" lon="1.05462">
        <ele>126.07</ele>
        <time>2011-10-08T13:21:16Z</time>
      </trkpt>
      <trkpt lat="48.94589" lon="1.05472">
        <ele>125.59</ele>
        <time>2011-10-08T13:21:20Z</time>
      </trkpt>
      <trkpt lat="48.94587" lon="1.05488">
        <ele>126.55</ele>
        <time>2011-10-08T13:21:27Z</time>
      </trkpt>
      <trkpt lat="48.94586" lon="1.05501">
        <ele>126.55</ele>
        <time>2011-10-08T13:21:33Z</time>
      </trkpt>
      <trkpt lat="48.94584" lon="1.05508">
        <ele>126.55</ele>
        <time>2011-10-08T13:21:37Z</time>
      </trkpt>
      <trkpt lat="48.94583" lon="1.05528">
        <ele>127.99</ele>
        <time>2011-10-08T13:21:44Z</time>
      </trkpt>
      <trkpt lat="48.94573" lon="1.05562">
        <ele>127.99</ele>
        <time>2011-10-08T13:21:57Z</time>
      </trkpt>
      <trkpt lat="48.94565" lon="1.05586">
        <ele>127.99</ele>
        <time>2011-10-08T13:22:05Z</time>
      </trkpt>
      <trkpt lat="48.94563" lon="1.05604">
        <ele>127.99</ele>
        <time>2011-10-08T13:22:10Z</time>
      </trkpt>
      <trkpt lat="48.94555" lon="1.05646">
        <ele>127.99</ele>
        <time>2011-10-08T13:22:23Z</time>
      </trkpt>
      <trkpt lat="48.9455" lon="1.05682">
        <ele>128.47</ele>
        <time>2011-10-08T13:22:33Z</time>
      </trkpt>
      <trkpt lat="48.94539" lon="1.05733">
        <ele>129.43</ele>
        <time>2011-10-08T13:22:47Z</time>
      </trkpt>
      <trkpt lat="48.94531" lon="1.05775">
        <ele>130.4</ele>
        <time>2011-10-08T13:23:00Z</time>
      </trkpt>
      <trkpt lat="48.9453" lon="1.05779">
        <ele>130.88</ele>
        <time>2011-10-08T13:23:01Z</time>
      </trkpt>
      <trkpt lat="48.94526" lon="1.0579">
        <ele>131.84</ele>
        <time>2011-10-08T13:23:05Z</time>
      </trkpt>
      <trkpt lat="48.94527" lon="1.05837">
        <ele>132.32</ele>
        <time>2011-10-08T13:23:19Z</time>
      </trkpt>
      <trkpt lat="48.94531" lon="1.05887">
        <ele>133.28</ele>
        <time>2011-10-08T13:23:33Z</time>
      </trkpt>
      <trkpt lat="48.94533" lon="1.05918">
        <ele>134.24</ele>
        <time>2011-10-08T13:23:43Z</time>
      </trkpt>
      <trkpt lat="48.94532" lon="1.05939">
        <ele>135.68</ele>
        <time>2011-10-08T13:23:49Z</time>
      </trkpt>
      <trkpt lat="48.94533" lon="1.05958">
        <ele>135.2</ele>
        <time>2011-10-08T13:23:54Z</time>
      </trkpt>
      <trkpt lat="48.94534" lon="1.05966">
        <ele>135.68</ele>
        <time>2011-10-08T13:23:56Z</time>
      </trkpt>
      <trkpt lat="48.9453" lon="1.06006">
        <ele>136.64</ele>
        <time>2011-10-08T13:24:09Z</time>
      </trkpt>
      <trkpt lat="48.94528" lon="1.06019">
        <ele>137.61</ele>
        <time>2011-10-08T13:24:14Z</time>
      </trkpt>
      <trkpt lat="48.94528" lon="1.06075">
        <ele>140.01</ele>
        <time>2011-10-08T13:24:33Z</time>
      </trkpt>
      <trkpt lat="48.94527" lon="1.06133">
        <ele>141.45</ele>
        <time>2011-10-08T13:24:53Z</time>
      </trkpt>
      <trkpt lat="48.94522" lon="1.062">
        <ele>142.89</ele>
        <time>2011-10-08T13:25:13Z</time>
      </trkpt>
      <trkpt lat="48.94519" lon="1.06238">
        <ele>143.37</ele>
        <time>2011-10-08T13:25:26Z</time>
      </trkpt>
      <trkpt lat="48.94518" lon="1.06251">
        <ele>142.41</ele>
        <time>2011-10-08T13:25:30Z</time>
      </trkpt>
      <trkpt lat="48.94513" lon="1.06261">
        <ele>143.37</ele>
        <time>2011-10-08T13:25:35Z</time>
      </trkpt>
      <trkpt lat="48.94512" lon="1.06264">
        <ele>143.37</ele>
        <time>2011-10-08T13:25:39Z</time>
      </trkpt>
      <trkpt lat="48.94514" lon="1.06261">
        <ele>143.37</ele>
        <time>2011-10-08T13:25:41Z</time>
      </trkpt>
      <trkpt lat="48.94519" lon="1.06236">
        <ele>142.89</ele>
        <time>2011-10-08T13:25:49Z</time>
      </trkpt>
      <trkpt lat="48.94515" lon="1.06225">
        <ele>142.89</ele>
        <time>2011-10-08T13:25:54Z</time>
      </trkpt>
      <trkpt lat="48.94486" lon="1.06242">
        <ele>142.89</ele>
        <time>2011-10-08T13:26:08Z</time>
      </trkpt>
      <trkpt lat="48.94437" lon="1.06271">
        <ele>141.93</ele>
        <time>2011-10-08T13:26:24Z</time>
      </trkpt>
      <trkpt lat="48.94376" lon="1.06315">
        <ele>140.49</ele>
        <time>2011-10-08T13:26:42Z</time>
      </trkpt>
      <trkpt lat="48.94369" lon="1.0632">
        <ele>140.49</ele>
        <time>2011-10-08T13:26:44Z</time>
      </trkpt>
      <trkpt lat="48.94284" lon="1.06378">
        <ele>138.09</ele>
        <time>2011-10-08T13:27:04Z</time>
      </trkpt>
      <trkpt lat="48.94274" lon="1.06385">
        <ele>138.57</ele>
        <time>2011-10-08T13:27:06Z</time>
      </trkpt>
      <trkpt lat="48.94234" lon="1.06412">
        <ele>136.64</ele>
        <time>2011-10-08T13:27:15Z</time>
      </trkpt>
      <trkpt lat="48.94196" lon="1.06436">
        <ele>135.68</ele>
        <time>2011-10-08T13:27:23Z</time>
      </trkpt>
      <trkpt lat="48.94176" lon="1.06446">
        <ele>136.16</ele>
        <time>2011-10-08T13:27:27Z</time>
      </trkpt>
      <trkpt lat="48.94161" lon="1.06456">
        <ele>135.2</ele>
        <time>2011-10-08T13:27:31Z</time>
      </trkpt>
      <trkpt lat="48.94135" lon="1.06475">
        <ele>134.72</ele>
        <time>2011-10-08T13:27:40Z</time>
      </trkpt>
      <trkpt lat="48.94101" lon="1.06497">
        <ele>134.24</ele>
        <time>2011-10-08T13:27:49Z</time>
      </trkpt>
      <trkpt lat="48.94071" lon="1.06522">
        <ele>130.88</ele>
        <time>2011-10-08T13:27:56Z</time>
      </trkpt>
      <trkpt lat="48.94065" lon="1.06525">
        <ele>130.88</ele>
        <time>2011-10-08T13:27:57Z</time>
      </trkpt>
      <trkpt lat="48.94048" lon="1.06537">
        <ele>130.4</ele>
        <time>2011-10-08T13:28:00Z</time>
      </trkpt>
      <trkpt lat="48.9403" lon="1.06549">
        <ele>129.43</ele>
        <time>2011-10-08T13:28:04Z</time>
      </trkpt>
      <trkpt lat="48.94018" lon="1.06557">
        <ele>127.99</ele>
        <time>2011-10-08T13:28:07Z</time>
      </trkpt>
      <trkpt lat="48.93989" lon="1.06584">
        <ele>125.59</ele>
        <time>2011-10-08T13:28:13Z</time>
      </trkpt>
      <trkpt lat="48.93979" lon="1.06591">
        <ele>124.63</ele>
        <time>2011-10-08T13:28:15Z</time>
      </trkpt>
      <trkpt lat="48.9397" lon="1.06597">
        <ele>123.67</ele>
        <time>2011-10-08T13:28:17Z</time>
      </trkpt>
      <trkpt lat="48.93943" lon="1.06609">
        <ele>123.19</ele>
        <time>2011-10-08T13:28:21Z</time>
      </trkpt>
      <trkpt lat="48.9391" lon="1.06638">
        <ele>126.55</ele>
        <time>2011-10-08T13:28:31Z</time>
      </trkpt>
      <trkpt lat="48.93882" lon="1.06651">
        <ele>129.92</ele>
        <time>2011-10-08T13:28:40Z</time>
      </trkpt>
      <trkpt lat="48.93873" lon="1.06659">
        <ele>130.4</ele>
        <time>2011-10-08T13:28:45Z</time>
      </trkpt>
      <trkpt lat="48.93861" lon="1.0668">
        <ele>130.4</ele>
        <time>2011-10-08T13:28:55Z</time>
      </trkpt>
      <trkpt lat="48.93855" lon="1.06687">
        <ele>130.88</ele>
        <time>2011-10-08T13:28:58Z</time>
      </trkpt>
      <trkpt lat="48.93843" lon="1.06694">
        <ele>131.84</ele>
        <time>2011-10-08T13:29:06Z</time>
      </trkpt>
      <trkpt lat="48.93804" lon="1.06716">
        <ele>132.32</ele>
        <time>2011-10-08T13:29:18Z</time>
      </trkpt>
      <trkpt lat="48.93775" lon="1.06733">
        <ele>132.8</ele>
        <time>2011-10-08T13:29:27Z</time>
      </trkpt>
      <trkpt lat="48.93767" lon="1.0674">
        <ele>132.8</ele>
        <time>2011-10-08T13:29:31Z</time>
      </trkpt>
      <trkpt lat="48.93755" lon="1.06745">
        <ele>133.28</ele>
        <time>2011-10-08T13:29:35Z</time>
      </trkpt>
      <trkpt lat="48.93741" lon="1.06758">
        <ele>133.76</ele>
        <time>2011-10-08T13:29:41Z</time>
      </trkpt>
      <trkpt lat="48.9371" lon="1.06782">
        <ele>134.24</ele>
        <time>2011-10-08T13:29:52Z</time>
      </trkpt>
      <trkpt lat="48.9367" lon="1.06804">
        <ele>134.24</ele>
        <time>2011-10-08T13:30:05Z</time>
      </trkpt>
      <trkpt lat="48.93645" lon="1.06821">
        <ele>135.2</ele>
        <time>2011-10-08T13:30:15Z</time>
      </trkpt>
      <trkpt lat="48.93628" lon="1.06831">
        <ele>135.68</ele>
        <time>2011-10-08T13:30:20Z</time>
      </trkpt>
      <trkpt lat="48.93617" lon="1.06838">
        <ele>135.2</ele>
        <time>2011-10-08T13:30:24Z</time>
      </trkpt>
      <trkpt lat="48.93582" lon="1.06865">
        <ele>135.2</ele>
        <time>2011-10-08T13:30:36Z</time>
      </trkpt>
      <trkpt lat="48.93543" lon="1.06893">
        <ele>134.24</ele>
        <time>2011-10-08T13:30:49Z</time>
      </trkpt>
      <trkpt lat="48.93509" lon="1.06915">
        <ele>133.76</ele>
        <time>2011-10-08T13:30:59Z</time>
      </trkpt>
      <trkpt lat="48.93481" lon="1.06933">
        <ele>133.76</ele>
        <time>2011-10-08T13:31:06Z</time>
      </trkpt>
      <trkpt lat="48.93476" lon="1.06938">
        <ele>132.8</ele>
        <time>2011-10-08T13:31:08Z</time>
      </trkpt>
      <trkpt lat="48.93444" lon="1.0696">
        <ele>134.24</ele>
        <time>2011-10-08T13:31:17Z</time>
      </trkpt>
      <trkpt lat="48.93415" lon="1.06978">
        <ele>133.76</ele>
        <time>2011-10-08T13:31:26Z</time>
      </trkpt>
      <trkpt lat="48.93383" lon="1.07002">
        <ele>134.24</ele>
        <time>2011-10-08T13:31:36Z</time>
      </trkpt>
      <trkpt lat="48.93336" lon="1.07029">
        <ele>135.2</ele>
        <time>2011-10-08T13:31:50Z</time>
      </trkpt>
      <trkpt lat="48.93317" lon="1.07041">
        <ele>133.28</ele>
        <time>2011-10-08T13:31:58Z</time>
      </trkpt>
      <trkpt lat="48.9332" lon="1.07042">
        <ele>133.28</ele>
        <time>2011-10-08T13:32:05Z</time>
      </trkpt>
      <trkpt lat="48.93321" lon="1.07049">
        <ele>132.8</ele>
        <time>2011-10-08T13:32:07Z</time>
      </trkpt>
      <trkpt lat="48.93327" lon="1.07093">
        <ele>132.32</ele>
        <time>2011-10-08T13:32:21Z</time>
      </trkpt>
      <trkpt lat="48.9334" lon="1.07123">
        <ele>132.8</ele>
        <time>2011-10-08T13:32:35Z</time>
      </trkpt>
      <trkpt lat="48.93347" lon="1.07151">
        <ele>132.32</ele>
        <time>2011-10-08T13:32:46Z</time>
      </trkpt>
      <trkpt lat="48.93358" lon="1.07196">
        <ele>132.8</ele>
        <time>2011-10-08T13:33:01Z</time>
      </trkpt>
      <trkpt lat="48.93373" lon="1.0726">
        <ele>132.8</ele>
        <time>2011-10-08T13:33:13Z</time>
      </trkpt>
      <trkpt lat="48.93385" lon="1.07296">
        <ele>132.32</ele>
        <time>2011-10-08T13:33:20Z</time>
      </trkpt>
      <trkpt lat="48.93411" lon="1.07361">
        <ele>133.28</ele>
        <time>2011-10-08T13:33:33Z</time>
      </trkpt>
      <trkpt lat="48.9342" lon="1.07393">
        <ele>134.24</ele>
        <time>2011-10-08T13:33:41Z</time>
      </trkpt>
      <trkpt lat="48.9342" lon="1.07394">
        <ele>133.76</ele>
        <time>2011-10-08T13:33:47Z</time>
      </trkpt>
      <trkpt lat="48.93393" lon="1.07322">
        <ele>133.28</ele>
        <time>2011-10-08T13:34:00Z</time>
      </trkpt>
      <trkpt lat="48.93372" lon="1.07257">
        <ele>133.76</ele>
        <time>2011-10-08T13:34:09Z</time>
      </trkpt>
      <trkpt lat="48.9336" lon="1.07222">
        <ele>132.32</ele>
        <time>2011-10-08T13:34:14Z</time>
      </trkpt>
      <trkpt lat="48.93351" lon="1.07196">
        <ele>132.8</ele>
        <time>2011-10-08T13:34:18Z</time>
      </trkpt>
      <trkpt lat="48.93338" lon="1.07132">
        <ele>133.28</ele>
        <time>2011-10-08T13:34:29Z</time>
      </trkpt>
      <trkpt lat="48.93319" lon="1.07088">
        <ele>133.76</ele>
        <time>2011-10-08T13:34:39Z</time>
      </trkpt>
      <trkpt lat="48.93312" lon="1.07061">
        <ele>133.76</ele>
        <time>2011-10-08T13:34:44Z</time>
      </trkpt>
      <trkpt lat="48.93293" lon="1.07061">
        <ele>131.36</ele>
        <time>2011-10-08T13:34:50Z</time>
      </trkpt>
      <trkpt lat="48.93254" lon="1.07087">
        <ele>132.32</ele>
        <time>2011-10-08T13:35:00Z</time>
      </trkpt>
      <trkpt lat="48.93233" lon="1.07102">
        <ele>133.28</ele>
        <time>2011-10-08T13:35:07Z</time>
      </trkpt>
      <trkpt lat="48.93198" lon="1.07138">
        <ele>133.28</ele>
        <time>2011-10-08T13:35:17Z</time>
      </trkpt>
      <trkpt lat="48.93193" lon="1.07141">
        <ele>134.72</ele>
        <time>2011-10-08T13:35:18Z</time>
      </trkpt>
      <trkpt lat="48.93159" lon="1.07159">
        <ele>133.76</ele>
        <time>2011-10-08T13:35:24Z</time>
      </trkpt>
      <trkpt lat="48.93133" lon="1.07176">
        <ele>134.72</ele>
        <time>2011-10-08T13:35:29Z</time>
      </trkpt>
      <trkpt lat="48.93099" lon="1.07192">
        <ele>134.72</ele>
        <time>2011-10-08T13:35:34Z</time>
      </trkpt>
      <trkpt lat="48.93057" lon="1.07226">
        <ele>135.2</ele>
        <time>2011-10-08T13:35:45Z</time>
      </trkpt>
      <trkpt lat="48.93027" lon="1.07246">
        <ele>135.2</ele>
        <time>2011-10-08T13:35:55Z</time>
      </trkpt>
      <trkpt lat="48.93017" lon="1.07254">
        <ele>135.68</ele>
        <time>2011-10-08T13:35:58Z</time>
      </trkpt>
      <trkpt lat="48.92996" lon="1.07264">
        <ele>136.64</ele>
        <time>2011-10-08T13:36:04Z</time>
      </trkpt>
      <trkpt lat="48.92952" lon="1.07297">
        <ele>134.72</ele>
        <time>2011-10-08T13:36:15Z</time>
      </trkpt>
      <trkpt lat="48.9293" lon="1.0731">
        <ele>135.68</ele>
        <time>2011-10-08T13:36:22Z</time>
      </trkpt>
      <trkpt lat="48.92923" lon="1.07316">
        <ele>134.24</ele>
        <time>2011-10-08T13:36:26Z</time>
      </trkpt>
      <trkpt lat="48.92919" lon="1.07319">
        <ele>134.24</ele>
        <time>2011-10-08T13:36:38Z</time>
      </trkpt>
      <trkpt lat="48.92922" lon="1.07322">
        <ele>134.24</ele>
        <time>2011-10-08T13:37:02Z</time>
      </trkpt>
      <trkpt lat="48.92916" lon="1.07333">
        <ele>133.76</ele>
        <time>2011-10-08T13:37:12Z</time>
      </trkpt>
      <trkpt lat="48.92909" lon="1.07335">
        <ele>134.24</ele>
        <time>2011-10-08T13:37:19Z</time>
      </trkpt>
      <trkpt lat="48.92905" lon="1.07338">
        <ele>133.28</ele>
        <time>2011-10-08T13:37:22Z</time>
      </trkpt>
      <trkpt lat="48.92894" lon="1.07344">
        <ele>133.76</ele>
        <time>2011-10-08T13:37:28Z</time>
      </trkpt>
      <trkpt lat="48.92878" lon="1.07348">
        <ele>132.8</ele>
        <time>2011-10-08T13:37:35Z</time>
      </trkpt>
      <trkpt lat="48.92875" lon="1.0735">
        <ele>133.28</ele>
        <time>2011-10-08T13:37:37Z</time>
      </trkpt>
      <trkpt lat="48.92854" lon="1.07371">
        <ele>132.8</ele>
        <time>2011-10-08T13:37:47Z</time>
      </trkpt>
      <trkpt lat="48.9282" lon="1.07397">
        <ele>132.8</ele>
        <time>2011-10-08T13:37:59Z</time>
      </trkpt>
      <trkpt lat="48.92786" lon="1.07419">
        <ele>132.32</ele>
        <time>2011-10-08T13:38:10Z</time>
      </trkpt>
      <trkpt lat="48.92761" lon="1.0743">
        <ele>131.84</ele>
        <time>2011-10-08T13:38:18Z</time>
      </trkpt>
      <trkpt lat="48.92749" lon="1.07435">
        <ele>131.36</ele>
        <time>2011-10-08T13:38:23Z</time>
      </trkpt>
      <trkpt lat="48.92739" lon="1.07447">
        <ele>131.36</ele>
        <time>2011-10-08T13:38:31Z</time>
      </trkpt>
      <trkpt lat="48.92733" lon="1.07452">
        <ele>131.36</ele>
        <time>2011-10-08T13:38:35Z</time>
      </trkpt>
      <trkpt lat="48.92733" lon="1.07471">
        <ele>131.84</ele>
        <time>2011-10-08T13:38:42Z</time>
      </trkpt>
      <trkpt lat="48.92731" lon="1.07484">
        <ele>132.32</ele>
        <time>2011-10-08T13:38:46Z</time>
      </trkpt>
      <trkpt lat="48.92729" lon="1.07512">
        <ele>132.8</ele>
        <time>2011-10-08T13:38:54Z</time>
      </trkpt>
      <trkpt lat="48.92728" lon="1.07525">
        <ele>133.76</ele>
        <time>2011-10-08T13:38:57Z</time>
      </trkpt>
      <trkpt lat="48.92728" lon="1.07567">
        <ele>134.24</ele>
        <time>2011-10-08T13:39:08Z</time>
      </trkpt>
      <trkpt lat="48.92729" lon="1.07611">
        <ele>135.68</ele>
        <time>2011-10-08T13:39:19Z</time>
      </trkpt>
      <trkpt lat="48.92729" lon="1.0767">
        <ele>135.68</ele>
        <time>2011-10-08T13:39:33Z</time>
      </trkpt>
      <trkpt lat="48.92731" lon="1.0771">
        <ele>136.64</ele>
        <time>2011-10-08T13:39:43Z</time>
      </trkpt>
      <trkpt lat="48.92728" lon="1.07758">
        <ele>137.13</ele>
        <time>2011-10-08T13:39:55Z</time>
      </trkpt>
      <trkpt lat="48.92728" lon="1.07805">
        <ele>138.57</ele>
        <time>2011-10-08T13:40:06Z</time>
      </trkpt>
      <trkpt lat="48.92731" lon="1.0783">
        <ele>138.57</ele>
        <time>2011-10-08T13:40:14Z</time>
      </trkpt>
      <trkpt lat="48.9273" lon="1.0786">
        <ele>139.53</ele>
        <time>2011-10-08T13:40:22Z</time>
      </trkpt>
      <trkpt lat="48.92729" lon="1.07868">
        <ele>139.53</ele>
        <time>2011-10-08T13:40:25Z</time>
      </trkpt>
      <trkpt lat="48.92705" lon="1.07838">
        <ele>138.09</ele>
        <time>2011-10-08T13:40:35Z</time>
      </trkpt>
      <trkpt lat="48.92693" lon="1.07827">
        <ele>138.09</ele>
        <time>2011-10-08T13:40:38Z</time>
      </trkpt>
      <trkpt lat="48.92681" lon="1.07819">
        <ele>137.61</ele>
        <time>2011-10-08T13:40:41Z</time>
      </trkpt>
      <trkpt lat="48.92659" lon="1.07813">
        <ele>137.61</ele>
        <time>2011-10-08T13:40:46Z</time>
      </trkpt>
      <trkpt lat="48.9264" lon="1.07814">
        <ele>137.61</ele>
        <time>2011-10-08T13:40:50Z</time>
      </trkpt>
      <trkpt lat="48.92593" lon="1.07817">
        <ele>137.13</ele>
        <time>2011-10-08T13:40:59Z</time>
      </trkpt>
      <trkpt lat="48.92574" lon="1.07828">
        <ele>138.09</ele>
        <time>2011-10-08T13:41:04Z</time>
      </trkpt>
      <trkpt lat="48.92566" lon="1.07836">
        <ele>136.64</ele>
        <time>2011-10-08T13:41:06Z</time>
      </trkpt>
      <trkpt lat="48.92554" lon="1.07846">
        <ele>136.16</ele>
        <time>2011-10-08T13:41:09Z</time>
      </trkpt>
      <trkpt lat="48.92513" lon="1.07866">
        <ele>137.61</ele>
        <time>2011-10-08T13:41:20Z</time>
      </trkpt>
      <trkpt lat="48.92471" lon="1.07889">
        <ele>137.13</ele>
        <time>2011-10-08T13:41:31Z</time>
      </trkpt>
      <trkpt lat="48.92404" lon="1.07905">
        <ele>138.09</ele>
        <time>2011-10-08T13:41:46Z</time>
      </trkpt>
      <trkpt lat="48.92386" lon="1.07906">
        <ele>137.61</ele>
        <time>2011-10-08T13:41:50Z</time>
      </trkpt>
      <trkpt lat="48.92348" lon="1.07918">
        <ele>138.57</ele>
        <time>2011-10-08T13:41:59Z</time>
      </trkpt>
      <trkpt lat="48.92315" lon="1.07917">
        <ele>138.09</ele>
        <time>2011-10-08T13:42:07Z</time>
      </trkpt>
      <trkpt lat="48.92273" lon="1.07881">
        <ele>136.16</ele>
        <time>2011-10-08T13:42:17Z</time>
      </trkpt>
      <trkpt lat="48.92199" lon="1.07857">
        <ele>136.16</ele>
        <time>2011-10-08T13:42:32Z</time>
      </trkpt>
      <trkpt lat="48.92187" lon="1.07851">
        <ele>136.64</ele>
        <time>2011-10-08T13:42:35Z</time>
      </trkpt>
      <trkpt lat="48.92173" lon="1.07854">
        <ele>137.13</ele>
        <time>2011-10-08T13:42:39Z</time>
      </trkpt>
      <trkpt lat="48.92098" lon="1.07907">
        <ele>137.13</ele>
        <time>2011-10-08T13:43:00Z</time>
      </trkpt>
      <trkpt lat="48.92055" lon="1.07931">
        <ele>139.05</ele>
        <time>2011-10-08T13:43:12Z</time>
      </trkpt>
      <trkpt lat="48.9202" lon="1.07948">
        <ele>139.05</ele>
        <time>2011-10-08T13:43:22Z</time>
      </trkpt>
      <trkpt lat="48.91974" lon="1.07985">
        <ele>140.01</ele>
        <time>2011-10-08T13:43:36Z</time>
      </trkpt>
      <trkpt lat="48.91933" lon="1.08018">
        <ele>140.01</ele>
        <time>2011-10-08T13:43:49Z</time>
      </trkpt>
      <trkpt lat="48.91929" lon="1.08027">
        <ele>140.01</ele>
        <time>2011-10-08T13:43:52Z</time>
      </trkpt>
      <trkpt lat="48.91949" lon="1.08095">
        <ele>141.45</ele>
        <time>2011-10-08T13:44:07Z</time>
      </trkpt>
      <trkpt lat="48.91962" lon="1.08149">
        <ele>141.45</ele>
        <time>2011-10-08T13:44:19Z</time>
      </trkpt>
      <trkpt lat="48.91985" lon="1.08186">
        <ele>140.97</ele>
        <time>2011-10-08T13:44:29Z</time>
      </trkpt>
      <trkpt lat="48.92006" lon="1.08219">
        <ele>140.97</ele>
        <time>2011-10-08T13:44:38Z</time>
      </trkpt>
      <trkpt lat="48.92013" lon="1.08266">
        <ele>143.37</ele>
        <time>2011-10-08T13:44:47Z</time>
      </trkpt>
      <trkpt lat="48.92012" lon="1.08288">
        <ele>142.41</ele>
        <time>2011-10-08T13:44:51Z</time>
      </trkpt>
      <trkpt lat="48.92009" lon="1.08357">
        <ele>142.41</ele>
        <time>2011-10-08T13:45:03Z</time>
      </trkpt>
      <trkpt lat="48.91982" lon="1.08385">
        <ele>141.45</ele>
        <time>2011-10-08T13:45:13Z</time>
      </trkpt>
      <trkpt lat="48.91955" lon="1.08404">
        <ele>140.49</ele>
        <time>2011-10-08T13:45:20Z</time>
      </trkpt>
      <trkpt lat="48.91861" lon="1.08478">
        <ele>140.01</ele>
        <time>2011-10-08T13:45:43Z</time>
      </trkpt>
      <trkpt lat="48.91833" lon="1.08505">
        <ele>140.49</ele>
        <time>2011-10-08T13:45:51Z</time>
      </trkpt>
      <trkpt lat="48.91823" lon="1.08519">
        <ele>139.53</ele>
        <time>2011-10-08T13:45:54Z</time>
      </trkpt>
      <trkpt lat="48.91789" lon="1.08556">
        <ele>138.57</ele>
        <time>2011-10-08T13:46:03Z</time>
      </trkpt>
      <trkpt lat="48.91772" lon="1.08582">
        <ele>138.57</ele>
        <time>2011-10-08T13:46:08Z</time>
      </trkpt>
      <trkpt lat="48.91754" lon="1.08606">
        <ele>138.57</ele>
        <time>2011-10-08T13:46:13Z</time>
      </trkpt>
      <trkpt lat="48.91709" lon="1.08665">
        <ele>138.57</ele>
        <time>2011-10-08T13:46:27Z</time>
      </trkpt>
      <trkpt lat="48.91697" lon="1.08676">
        <ele>138.09</ele>
        <time>2011-10-08T13:46:31Z</time>
      </trkpt>
      <trkpt lat="48.91694" lon="1.08706">
        <ele>139.05</ele>
        <time>2011-10-08T13:46:38Z</time>
      </trkpt>
      <trkpt lat="48.91723" lon="1.08805">
        <ele>140.49</ele>
        <time>2011-10-08T13:46:57Z</time>
      </trkpt>
      <trkpt lat="48.91757" lon="1.08906">
        <ele>142.89</ele>
        <time>2011-10-08T13:47:19Z</time>
      </trkpt>
      <trkpt lat="48.91759" lon="1.08949">
        <ele>143.37</ele>
        <time>2011-10-08T13:47:29Z</time>
      </trkpt>
      <trkpt lat="48.9177" lon="1.08971">
        <ele>143.37</ele>
        <time>2011-10-08T13:47:38Z</time>
      </trkpt>
      <trkpt lat="48.91806" lon="1.09048">
        <ele>144.34</ele>
        <time>2011-10-08T13:47:55Z</time>
      </trkpt>
      <trkpt lat="48.91863" lon="1.09167">
        <ele>145.3</ele>
        <time>2011-10-08T13:48:20Z</time>
      </trkpt>
      <trkpt lat="48.91907" lon="1.09265">
        <ele>146.74</ele>
        <time>2011-10-08T13:48:41Z</time>
      </trkpt>
      <trkpt lat="48.91914" lon="1.09282">
        <ele>147.22</ele>
        <time>2011-10-08T13:48:45Z</time>
      </trkpt>
      <trkpt lat="48.91922" lon="1.09283">
        <ele>147.22</ele>
        <time>2011-10-08T13:48:49Z</time>
      </trkpt>
      <trkpt lat="48.91963" lon="1.09231">
        <ele>146.74</ele>
        <time>2011-10-08T13:49:04Z</time>
      </trkpt>
      <trkpt lat="48.92035" lon="1.09188">
        <ele>146.74</ele>
        <time>2011-10-08T13:49:25Z</time>
      </trkpt>
      <trkpt lat="48.92122" lon="1.09148">
        <ele>147.7</ele>
        <time>2011-10-08T13:49:49Z</time>
      </trkpt>
      <trkpt lat="48.92187" lon="1.09089">
        <ele>146.26</ele>
        <time>2011-10-08T13:50:09Z</time>
      </trkpt>
      <trkpt lat="48.92236" lon="1.09044">
        <ele>146.74</ele>
        <time>2011-10-08T13:50:27Z</time>
      </trkpt>
      <trkpt lat="48.92248" lon="1.09051">
        <ele>147.22</ele>
        <time>2011-10-08T13:50:32Z</time>
      </trkpt>
      <trkpt lat="48.92289" lon="1.09171">
        <ele>146.74</ele>
        <time>2011-10-08T13:50:54Z</time>
      </trkpt>
      <trkpt lat="48.92334" lon="1.09314">
        <ele>146.74</ele>
        <time>2011-10-08T13:51:18Z</time>
      </trkpt>
      <trkpt lat="48.9234" lon="1.09331">
        <ele>147.22</ele>
        <time>2011-10-08T13:51:21Z</time>
      </trkpt>
      <trkpt lat="48.92355" lon="1.09352">
        <ele>145.78</ele>
        <time>2011-10-08T13:51:26Z</time>
      </trkpt>
      <trkpt lat="48.92434" lon="1.09427">
        <ele>146.74</ele>
        <time>2011-10-08T13:51:48Z</time>
      </trkpt>
      <trkpt lat="48.92522" lon="1.09528">
        <ele>144.82</ele>
        <time>2011-10-08T13:52:11Z</time>
      </trkpt>
      <trkpt lat="48.92546" lon="1.09578">
        <ele>144.34</ele>
        <time>2011-10-08T13:52:19Z</time>
      </trkpt>
      <trkpt lat="48.92612" lon="1.09722">
        <ele>142.41</ele>
        <time>2011-10-08T13:52:41Z</time>
      </trkpt>
      <trkpt lat="48.92683" lon="1.09916">
        <ele>140.97</ele>
        <time>2011-10-08T13:53:08Z</time>
      </trkpt>
      <trkpt lat="48.927" lon="1.09965">
        <ele>140.97</ele>
        <time>2011-10-08T13:53:16Z</time>
      </trkpt>
      <trkpt lat="48.92731" lon="1.09946">
        <ele>138.57</ele>
        <time>2011-10-08T13:53:25Z</time>
      </trkpt>
      <trkpt lat="48.9282" lon="1.09872">
        <ele>139.53</ele>
        <time>2011-10-08T13:53:50Z</time>
      </trkpt>
      <trkpt lat="48.92912" lon="1.09794">
        <ele>138.57</ele>
        <time>2011-10-08T13:54:18Z</time>
      </trkpt>
      <trkpt lat="48.92971" lon="1.09744">
        <ele>138.57</ele>
        <time>2011-10-08T13:54:35Z</time>
      </trkpt>
      <trkpt lat="48.92992" lon="1.0968">
        <ele>140.01</ele>
        <time>2011-10-08T13:54:48Z</time>
      </trkpt>
      <trkpt lat="48.92986" lon="1.09627">
        <ele>140.01</ele>
        <time>2011-10-08T13:55:00Z</time>
      </trkpt>
      <trkpt lat="48.93005" lon="1.09596">
        <ele>139.53</ele>
        <time>2011-10-08T13:55:09Z</time>
      </trkpt>
      <trkpt lat="48.9308" lon="1.0953">
        <ele>140.49</ele>
        <time>2011-10-08T13:55:35Z</time>
      </trkpt>
      <trkpt lat="48.93164" lon="1.09459">
        <ele>142.89</ele>
        <time>2011-10-08T13:56:04Z</time>
      </trkpt>
      <trkpt lat="48.93226" lon="1.09408">
        <ele>143.85</ele>
        <time>2011-10-08T13:56:26Z</time>
      </trkpt>
      <trkpt lat="48.93228" lon="1.09407">
        <ele>143.85</ele>
        <time>2011-10-08T13:56:27Z</time>
      </trkpt>
      <trkpt lat="48.93233" lon="1.09407">
        <ele>144.82</ele>
        <time>2011-10-08T13:56:29Z</time>
      </trkpt>
      <trkpt lat="48.93235" lon="1.09415">
        <ele>144.34</ele>
        <time>2011-10-08T13:56:31Z</time>
      </trkpt>
      <trkpt lat="48.93236" lon="1.09534">
        <ele>144.34</ele>
        <time>2011-10-08T13:56:49Z</time>
      </trkpt>
      <trkpt lat="48.93237" lon="1.09713">
        <ele>141.93</ele>
        <time>2011-10-08T13:57:08Z</time>
      </trkpt>
      <trkpt lat="48.93249" lon="1.09865">
        <ele>138.57</ele>
        <time>2011-10-08T13:57:21Z</time>
      </trkpt>
      <trkpt lat="48.93265" lon="1.0997">
        <ele>137.13</ele>
        <time>2011-10-08T13:57:29Z</time>
      </trkpt>
      <trkpt lat="48.93264" lon="1.10198">
        <ele>134.72</ele>
        <time>2011-10-08T13:57:45Z</time>
      </trkpt>
      <trkpt lat="48.93253" lon="1.10268">
        <ele>133.76</ele>
        <time>2011-10-08T13:57:50Z</time>
      </trkpt>
      <trkpt lat="48.93253" lon="1.10339">
        <ele>132.8</ele>
        <time>2011-10-08T13:57:55Z</time>
      </trkpt>
      <trkpt lat="48.93254" lon="1.105">
        <ele>131.36</ele>
        <time>2011-10-08T13:58:06Z</time>
      </trkpt>
      <trkpt lat="48.93211" lon="1.10682">
        <ele>131.84</ele>
        <time>2011-10-08T13:58:19Z</time>
      </trkpt>
      <trkpt lat="48.93226" lon="1.10831">
        <ele>129.92</ele>
        <time>2011-10-08T13:58:30Z</time>
      </trkpt>
      <trkpt lat="48.93284" lon="1.11081">
        <ele>127.51</ele>
        <time>2011-10-08T13:58:49Z</time>
      </trkpt>
      <trkpt lat="48.93335" lon="1.11242">
        <ele>129.92</ele>
        <time>2011-10-08T13:59:03Z</time>
      </trkpt>
      <trkpt lat="48.93391" lon="1.11353">
        <ele>131.84</ele>
        <time>2011-10-08T13:59:18Z</time>
      </trkpt>
      <trkpt lat="48.93398" lon="1.11372">
        <ele>132.32</ele>
        <time>2011-10-08T13:59:22Z</time>
      </trkpt>
      <trkpt lat="48.93398" lon="1.11376">
        <ele>131.84</ele>
        <time>2011-10-08T13:59:38Z</time>
      </trkpt>
      <trkpt lat="48.93404" lon="1.11391">
        <ele>131.84</ele>
        <time>2011-10-08T13:59:44Z</time>
      </trkpt>
      <trkpt lat="48.93462" lon="1.11414">
        <ele>131.36</ele>
        <time>2011-10-08T14:00:02Z</time>
      </trkpt>
      <trkpt lat="48.93537" lon="1.11422">
        <ele>133.28</ele>
        <time>2011-10-08T14:00:22Z</time>
      </trkpt>
      <trkpt lat="48.93622" lon="1.11425">
        <ele>136.64</ele>
        <time>2011-10-08T14:00:41Z</time>
      </trkpt>
      <trkpt lat="48.93701" lon="1.11427">
        <ele>139.53</ele>
        <time>2011-10-08T14:00:58Z</time>
      </trkpt>
      <trkpt lat="48.93819" lon="1.11451">
        <ele>141.93</ele>
        <time>2011-10-08T14:01:23Z</time>
      </trkpt>
      <trkpt lat="48.93935" lon="1.11486">
        <ele>143.37</ele>
        <time>2011-10-08T14:01:47Z</time>
      </trkpt>
      <trkpt lat="48.94057" lon="1.11512">
        <ele>143.85</ele>
        <time>2011-10-08T14:02:11Z</time>
      </trkpt>
      <trkpt lat="48.94212" lon="1.11546">
        <ele>146.26</ele>
        <time>2011-10-08T14:02:41Z</time>
      </trkpt>
      <trkpt lat="48.94232" lon="1.11549">
        <ele>145.78</ele>
        <time>2011-10-08T14:02:45Z</time>
      </trkpt>
      <trkpt lat="48.94311" lon="1.11564">
        <ele>146.74</ele>
        <time>2011-10-08T14:03:02Z</time>
      </trkpt>
      <trkpt lat="48.94409" lon="1.11583">
        <ele>148.66</ele>
        <time>2011-10-08T14:03:23Z</time>
      </trkpt>
      <trkpt lat="48.94517" lon="1.11618">
        <ele>150.1</ele>
        <time>2011-10-08T14:03:48Z</time>
      </trkpt>
      <trkpt lat="48.94638" lon="1.11685">
        <ele>151.54</ele>
        <time>2011-10-08T14:04:16Z</time>
      </trkpt>
      <trkpt lat="48.94707" lon="1.11723">
        <ele>153.47</ele>
        <time>2011-10-08T14:04:32Z</time>
      </trkpt>
      <trkpt lat="48.94838" lon="1.11793">
        <ele>155.87</ele>
        <time>2011-10-08T14:05:04Z</time>
      </trkpt>
      <trkpt lat="48.94946" lon="1.11824">
        <ele>154.91</ele>
        <time>2011-10-08T14:05:28Z</time>
      </trkpt>
      <trkpt lat="48.95003" lon="1.11832">
        <ele>155.39</ele>
        <time>2011-10-08T14:05:39Z</time>
      </trkpt>
      <trkpt lat="48.95043" lon="1.11836">
        <ele>152.03</ele>
        <time>2011-10-08T14:05:46Z</time>
      </trkpt>
      <trkpt lat="48.9512" lon="1.11845">
        <ele>150.1</ele>
        <time>2011-10-08T14:05:58Z</time>
      </trkpt>
      <trkpt lat="48.95146" lon="1.11864">
        <ele>150.58</ele>
        <time>2011-10-08T14:06:02Z</time>
      </trkpt>
      <trkpt lat="48.95177" lon="1.11918">
        <ele>148.66</ele>
        <time>2011-10-08T14:06:08Z</time>
      </trkpt>
      <trkpt lat="48.95216" lon="1.12037">
        <ele>145.78</ele>
        <time>2011-10-08T14:06:19Z</time>
      </trkpt>
      <trkpt lat="48.95219" lon="1.12048">
        <ele>146.74</ele>
        <time>2011-10-08T14:06:20Z</time>
      </trkpt>
      <trkpt lat="48.95304" lon="1.12225">
        <ele>144.82</ele>
        <time>2011-10-08T14:06:37Z</time>
      </trkpt>
      <trkpt lat="48.95408" lon="1.12415">
        <ele>146.26</ele>
        <time>2011-10-08T14:06:58Z</time>
      </trkpt>
      <trkpt lat="48.95451" lon="1.12481">
        <ele>144.82</ele>
        <time>2011-10-08T14:07:07Z</time>
      </trkpt>
      <trkpt lat="48.95535" lon="1.12538">
        <ele>143.37</ele>
        <time>2011-10-08T14:07:23Z</time>
      </trkpt>
      <trkpt lat="48.95553" lon="1.12554">
        <ele>145.78</ele>
        <time>2011-10-08T14:07:27Z</time>
      </trkpt>
      <trkpt lat="48.95583" lon="1.12536">
        <ele>144.34</ele>
        <time>2011-10-08T14:07:34Z</time>
      </trkpt>
      <trkpt lat="48.95619" lon="1.12472">
        <ele>141.93</ele>
        <time>2011-10-08T14:07:44Z</time>
      </trkpt>
      <trkpt lat="48.9565" lon="1.12424">
        <ele>140.49</ele>
        <time>2011-10-08T14:07:52Z</time>
      </trkpt>
      <trkpt lat="48.95706" lon="1.12339">
        <ele>137.13</ele>
        <time>2011-10-08T14:08:05Z</time>
      </trkpt>
      <trkpt lat="48.95735" lon="1.12305">
        <ele>139.05</ele>
        <time>2011-10-08T14:08:11Z</time>
      </trkpt>
      <trkpt lat="48.95755" lon="1.12281">
        <ele>140.01</ele>
        <time>2011-10-08T14:08:16Z</time>
      </trkpt>
      <trkpt lat="48.95843" lon="1.12184">
        <ele>140.49</ele>
        <time>2011-10-08T14:08:40Z</time>
      </trkpt>
      <trkpt lat="48.95942" lon="1.12082">
        <ele>140.49</ele>
        <time>2011-10-08T14:09:07Z</time>
      </trkpt>
      <trkpt lat="48.96031" lon="1.1199">
        <ele>137.13</ele>
        <time>2011-10-08T14:09:31Z</time>
      </trkpt>
      <trkpt lat="48.96097" lon="1.11907">
        <ele>137.13</ele>
        <time>2011-10-08T14:09:51Z</time>
      </trkpt>
      <trkpt lat="48.96104" lon="1.11882">
        <ele>138.09</ele>
        <time>2011-10-08T14:09:55Z</time>
      </trkpt>
      <trkpt lat="48.96115" lon="1.11861">
        <ele>136.64</ele>
        <time>2011-10-08T14:09:59Z</time>
      </trkpt>
      <trkpt lat="48.96175" lon="1.11799">
        <ele>136.16</ele>
        <time>2011-10-08T14:10:16Z</time>
      </trkpt>
      <trkpt lat="48.96182" lon="1.11792">
        <ele>136.16</ele>
        <time>2011-10-08T14:10:18Z</time>
      </trkpt>
      <trkpt lat="48.96279" lon="1.11692">
        <ele>138.57</ele>
        <time>2011-10-08T14:10:47Z</time>
      </trkpt>
      <trkpt lat="48.96381" lon="1.11589">
        <ele>140.49</ele>
        <time>2011-10-08T14:11:17Z</time>
      </trkpt>
      <trkpt lat="48.96395" lon="1.11575">
        <ele>140.97</ele>
        <time>2011-10-08T14:11:21Z</time>
      </trkpt>
      <trkpt lat="48.96434" lon="1.11497">
        <ele>140.97</ele>
        <time>2011-10-08T14:11:38Z</time>
      </trkpt>
      <trkpt lat="48.96453" lon="1.11425">
        <ele>142.89</ele>
        <time>2011-10-08T14:11:50Z</time>
      </trkpt>
      <trkpt lat="48.96497" lon="1.11262">
        <ele>141.93</ele>
        <time>2011-10-08T14:12:16Z</time>
      </trkpt>
      <trkpt lat="48.96542" lon="1.11089">
        <ele>140.01</ele>
        <time>2011-10-08T14:12:40Z</time>
      </trkpt>
      <trkpt lat="48.96587" lon="1.10914">
        <ele>140.01</ele>
        <time>2011-10-08T14:13:04Z</time>
      </trkpt>
      <trkpt lat="48.96625" lon="1.10765">
        <ele>137.61</ele>
        <time>2011-10-08T14:13:25Z</time>
      </trkpt>
      <trkpt lat="48.96666" lon="1.1059">
        <ele>137.13</ele>
        <time>2011-10-08T14:13:47Z</time>
      </trkpt>
      <trkpt lat="48.96706" lon="1.10391">
        <ele>138.09</ele>
        <time>2011-10-08T14:14:15Z</time>
      </trkpt>
      <trkpt lat="48.96712" lon="1.1033">
        <ele>137.61</ele>
        <time>2011-10-08T14:14:27Z</time>
      </trkpt>
      <trkpt lat="48.96707" lon="1.10335">
        <ele>137.61</ele>
        <time>2011-10-08T14:14:31Z</time>
      </trkpt>
      <trkpt lat="48.96702" lon="1.1038">
        <ele>137.61</ele>
        <time>2011-10-08T14:14:38Z</time>
      </trkpt>
      <trkpt lat="48.96734" lon="1.10392">
        <ele>136.16</ele>
        <time>2011-10-08T14:14:47Z</time>
      </trkpt>
      <trkpt lat="48.96805" lon="1.10396">
        <ele>135.68</ele>
        <time>2011-10-08T14:15:04Z</time>
      </trkpt>
      <trkpt lat="48.96821" lon="1.10415">
        <ele>136.64</ele>
        <time>2011-10-08T14:15:09Z</time>
      </trkpt>
      <trkpt lat="48.96824" lon="1.10428">
        <ele>136.64</ele>
        <time>2011-10-08T14:15:11Z</time>
      </trkpt>
      <trkpt lat="48.96838" lon="1.10484">
        <ele>137.13</ele>
        <time>2011-10-08T14:15:19Z</time>
      </trkpt>
      <trkpt lat="48.96852" lon="1.10537">
        <ele>137.61</ele>
        <time>2011-10-08T14:15:27Z</time>
      </trkpt>
      <trkpt lat="48.96867" lon="1.10601">
        <ele>138.09</ele>
        <time>2011-10-08T14:15:37Z</time>
      </trkpt>
      <trkpt lat="48.96892" lon="1.1061">
        <ele>138.09</ele>
        <time>2011-10-08T14:15:44Z</time>
      </trkpt>
      <trkpt lat="48.96896" lon="1.10605">
        <ele>138.09</ele>
        <time>2011-10-08T14:15:45Z</time>
      </trkpt>
      <trkpt lat="48.96923" lon="1.10581">
        <ele>137.61</ele>
        <time>2011-10-08T14:15:51Z</time>
      </trkpt>
      <trkpt lat="48.96962" lon="1.10582">
        <ele>136.64</ele>
        <time>2011-10-08T14:15:59Z</time>
      </trkpt>
      <trkpt lat="48.97049" lon="1.10611">
        <ele>136.64</ele>
        <time>2011-10-08T14:16:17Z</time>
      </trkpt>
      <trkpt lat="48.97069" lon="1.10619">
        <ele>135.68</ele>
        <time>2011-10-08T14:16:21Z</time>
      </trkpt>
      <trkpt lat="48.97138" lon="1.1064">
        <ele>136.64</ele>
        <time>2011-10-08T14:16:34Z</time>
      </trkpt>
      <trkpt lat="48.97144" lon="1.10641">
        <ele>136.16</ele>
        <time>2011-10-08T14:16:35Z</time>
      </trkpt>
      <trkpt lat="48.97183" lon="1.10644">
        <ele>135.2</ele>
        <time>2011-10-08T14:16:42Z</time>
      </trkpt>
      <trkpt lat="48.97211" lon="1.10652">
        <ele>134.72</ele>
        <time>2011-10-08T14:16:47Z</time>
      </trkpt>
      <trkpt lat="48.97256" lon="1.10678">
        <ele>134.24</ele>
        <time>2011-10-08T14:16:55Z</time>
      </trkpt>
      <trkpt lat="48.97288" lon="1.10705">
        <ele>134.72</ele>
        <time>2011-10-08T14:17:02Z</time>
      </trkpt>
      <trkpt lat="48.97318" lon="1.10736">
        <ele>134.24</ele>
        <time>2011-10-08T14:17:09Z</time>
      </trkpt>
      <trkpt lat="48.97336" lon="1.10749">
        <ele>134.24</ele>
        <time>2011-10-08T14:17:13Z</time>
      </trkpt>
      <trkpt lat="48.97351" lon="1.10756">
        <ele>133.76</ele>
        <time>2011-10-08T14:17:16Z</time>
      </trkpt>
      <trkpt lat="48.97389" lon="1.10769">
        <ele>133.28</ele>
        <time>2011-10-08T14:17:24Z</time>
      </trkpt>
      <trkpt lat="48.97426" lon="1.10792">
        <ele>133.28</ele>
        <time>2011-10-08T14:17:32Z</time>
      </trkpt>
      <trkpt lat="48.97477" lon="1.10842">
        <ele>132.8</ele>
        <time>2011-10-08T14:17:44Z</time>
      </trkpt>
      <trkpt lat="48.97494" lon="1.10865">
        <ele>132.8</ele>
        <time>2011-10-08T14:17:49Z</time>
      </trkpt>
      <trkpt lat="48.97501" lon="1.10877">
        <ele>132.8</ele>
        <time>2011-10-08T14:17:51Z</time>
      </trkpt>
      <trkpt lat="48.97513" lon="1.10901">
        <ele>132.8</ele>
        <time>2011-10-08T14:17:55Z</time>
      </trkpt>
      <trkpt lat="48.97529" lon="1.10932">
        <ele>132.32</ele>
        <time>2011-10-08T14:18:00Z</time>
      </trkpt>
      <trkpt lat="48.97547" lon="1.1096">
        <ele>131.84</ele>
        <time>2011-10-08T14:18:05Z</time>
      </trkpt>
      <trkpt lat="48.97565" lon="1.10973">
        <ele>130.88</ele>
        <time>2011-10-08T14:18:09Z</time>
      </trkpt>
      <trkpt lat="48.97604" lon="1.10986">
        <ele>128.95</ele>
        <time>2011-10-08T14:18:16Z</time>
      </trkpt>
      <trkpt lat="48.97625" lon="1.10995">
        <ele>127.99</ele>
        <time>2011-10-08T14:18:19Z</time>
      </trkpt>
      <trkpt lat="48.97639" lon="1.11003">
        <ele>127.99</ele>
        <time>2011-10-08T14:18:21Z</time>
      </trkpt>
      <trkpt lat="48.97658" lon="1.11011">
        <ele>127.03</ele>
        <time>2011-10-08T14:18:25Z</time>
      </trkpt>
      <trkpt lat="48.97668" lon="1.10983">
        <ele>127.99</ele>
        <time>2011-10-08T14:18:32Z</time>
      </trkpt>
      <trkpt lat="48.97673" lon="1.10964">
        <ele>129.43</ele>
        <time>2011-10-08T14:18:39Z</time>
      </trkpt>
      <trkpt lat="48.97688" lon="1.1092">
        <ele>131.36</ele>
        <time>2011-10-08T14:18:51Z</time>
      </trkpt>
      <trkpt lat="48.97703" lon="1.10885">
        <ele>132.8</ele>
        <time>2011-10-08T14:19:01Z</time>
      </trkpt>
      <trkpt lat="48.97718" lon="1.10846">
        <ele>132.32</ele>
        <time>2011-10-08T14:19:12Z</time>
      </trkpt>
      <trkpt lat="48.97734" lon="1.10794">
        <ele>132.8</ele>
        <time>2011-10-08T14:19:27Z</time>
      </trkpt>
      <trkpt lat="48.97755" lon="1.1072">
        <ele>134.72</ele>
        <time>2011-10-08T14:19:48Z</time>
      </trkpt>
      <trkpt lat="48.97766" lon="1.10687">
        <ele>135.68</ele>
        <time>2011-10-08T14:19:58Z</time>
      </trkpt>
      <trkpt lat="48.97786" lon="1.10629">
        <ele>135.2</ele>
        <time>2011-10-08T14:20:15Z</time>
      </trkpt>
      <trkpt lat="48.97814" lon="1.10543">
        <ele>136.64</ele>
        <time>2011-10-08T14:20:41Z</time>
      </trkpt>
      <trkpt lat="48.97839" lon="1.10469">
        <ele>136.16</ele>
        <time>2011-10-08T14:21:03Z</time>
      </trkpt>
      <trkpt lat="48.97865" lon="1.10392">
        <ele>138.09</ele>
        <time>2011-10-08T14:21:24Z</time>
      </trkpt>
      <trkpt lat="48.97895" lon="1.10303">
        <ele>136.64</ele>
        <time>2011-10-08T14:21:49Z</time>
      </trkpt>
      <trkpt lat="48.97922" lon="1.10226">
        <ele>138.09</ele>
        <time>2011-10-08T14:22:10Z</time>
      </trkpt>
      <trkpt lat="48.97944" lon="1.10154">
        <ele>137.61</ele>
        <time>2011-10-08T14:22:29Z</time>
      </trkpt>
      <trkpt lat="48.97955" lon="1.10115">
        <ele>137.61</ele>
        <time>2011-10-08T14:22:43Z</time>
      </trkpt>
      <trkpt lat="48.97973" lon="1.10059">
        <ele>138.09</ele>
        <time>2011-10-08T14:22:59Z</time>
      </trkpt>
      <trkpt lat="48.97985" lon="1.10016">
        <ele>139.53</ele>
        <time>2011-10-08T14:23:16Z</time>
      </trkpt>
      <trkpt lat="48.97985" lon="1.10017">
        <ele>137.13</ele>
        <time>2011-10-08T14:23:41Z</time>
      </trkpt>
      <trkpt lat="48.97986" lon="1.10017">
        <ele>139.05</ele>
        <time>2011-10-08T14:24:04Z</time>
      </trkpt>
      <trkpt lat="48.97991" lon="1.09997">
        <ele>138.57</ele>
        <time>2011-10-08T14:24:14Z</time>
      </trkpt>
      <trkpt lat="48.97995" lon="1.09985">
        <ele>139.05</ele>
        <time>2011-10-08T14:24:18Z</time>
      </trkpt>
      <trkpt lat="48.98017" lon="1.09928">
        <ele>139.05</ele>
        <time>2011-10-08T14:24:36Z</time>
      </trkpt>
      <trkpt lat="48.98031" lon="1.09877">
        <ele>139.05</ele>
        <time>2011-10-08T14:24:52Z</time>
      </trkpt>
      <trkpt lat="48.98054" lon="1.09804">
        <ele>140.01</ele>
        <time>2011-10-08T14:25:15Z</time>
      </trkpt>
      <trkpt lat="48.98073" lon="1.09751">
        <ele>140.01</ele>
        <time>2011-10-08T14:25:33Z</time>
      </trkpt>
      <trkpt lat="48.98091" lon="1.09693">
        <ele>140.49</ele>
        <time>2011-10-08T14:25:52Z</time>
      </trkpt>
      <trkpt lat="48.98106" lon="1.09648">
        <ele>140.49</ele>
        <time>2011-10-08T14:26:08Z</time>
      </trkpt>
      <trkpt lat="48.98128" lon="1.09589">
        <ele>140.97</ele>
        <time>2011-10-08T14:26:29Z</time>
      </trkpt>
      <trkpt lat="48.98144" lon="1.09541">
        <ele>140.97</ele>
        <time>2011-10-08T14:26:46Z</time>
      </trkpt>
      <trkpt lat="48.9816" lon="1.0949">
        <ele>141.93</ele>
        <time>2011-10-08T14:27:03Z</time>
      </trkpt>
      <trkpt lat="48.98179" lon="1.0943">
        <ele>141.45</ele>
        <time>2011-10-08T14:27:21Z</time>
      </trkpt>
      <trkpt lat="48.98198" lon="1.09374">
        <ele>140.49</ele>
        <time>2011-10-08T14:27:37Z</time>
      </trkpt>
      <trkpt lat="48.98216" lon="1.09326">
        <ele>140.97</ele>
        <time>2011-10-08T14:27:52Z</time>
      </trkpt>
      <trkpt lat="48.98227" lon="1.09294">
        <ele>140.97</ele>
        <time>2011-10-08T14:28:03Z</time>
      </trkpt>
      <trkpt lat="48.98238" lon="1.09288">
        <ele>140.97</ele>
        <time>2011-10-08T14:28:08Z</time>
      </trkpt>
      <trkpt lat="48.98323" lon="1.09355">
        <ele>138.09</ele>
        <time>2011-10-08T14:28:26Z</time>
      </trkpt>
      <trkpt lat="48.98415" lon="1.09423">
        <ele>134.72</ele>
        <time>2011-10-08T14:28:43Z</time>
      </trkpt>
      <trkpt lat="48.98458" lon="1.09455">
        <ele>133.76</ele>
        <time>2011-10-08T14:28:50Z</time>
      </trkpt>
      <trkpt lat="48.98489" lon="1.09478">
        <ele>132.32</ele>
        <time>2011-10-08T14:28:55Z</time>
      </trkpt>
      <trkpt lat="48.98507" lon="1.09486">
        <ele>132.8</ele>
        <time>2011-10-08T14:28:58Z</time>
      </trkpt>
      <trkpt lat="48.98539" lon="1.09473">
        <ele>129.92</ele>
        <time>2011-10-08T14:29:03Z</time>
      </trkpt>
      <trkpt lat="48.98558" lon="1.09455">
        <ele>128.47</ele>
        <time>2011-10-08T14:29:06Z</time>
      </trkpt>
      <trkpt lat="48.98581" lon="1.09438">
        <ele>127.03</ele>
        <time>2011-10-08T14:29:09Z</time>
      </trkpt>
      <trkpt lat="48.986" lon="1.09419">
        <ele>123.67</ele>
        <time>2011-10-08T14:29:12Z</time>
      </trkpt>
      <trkpt lat="48.98655" lon="1.09375">
        <ele>121.26</ele>
        <time>2011-10-08T14:29:20Z</time>
      </trkpt>
      <trkpt lat="48.98681" lon="1.09378">
        <ele>120.3</ele>
        <time>2011-10-08T14:29:26Z</time>
      </trkpt>
      <trkpt lat="48.98688" lon="1.09377">
        <ele>119.34</ele>
        <time>2011-10-08T14:29:28Z</time>
      </trkpt>
      <trkpt lat="48.9872" lon="1.09399">
        <ele>121.74</ele>
        <time>2011-10-08T14:29:42Z</time>
      </trkpt>
      <trkpt lat="48.98736" lon="1.0941">
        <ele>123.19</ele>
        <time>2011-10-08T14:29:50Z</time>
      </trkpt>
      <trkpt lat="48.98742" lon="1.09414">
        <ele>124.63</ele>
        <time>2011-10-08T14:29:54Z</time>
      </trkpt>
      <trkpt lat="48.98751" lon="1.09423">
        <ele>125.59</ele>
        <time>2011-10-08T14:29:58Z</time>
      </trkpt>
      <trkpt lat="48.98776" lon="1.09442">
        <ele>127.03</ele>
        <time>2011-10-08T14:30:11Z</time>
      </trkpt>
      <trkpt lat="48.98798" lon="1.09457">
        <ele>127.03</ele>
        <time>2011-10-08T14:30:23Z</time>
      </trkpt>
      <trkpt lat="48.98825" lon="1.09478">
        <ele>125.59</ele>
        <time>2011-10-08T14:30:35Z</time>
      </trkpt>
      <trkpt lat="48.98854" lon="1.09505">
        <ele>124.63</ele>
        <time>2011-10-08T14:30:44Z</time>
      </trkpt>
      <trkpt lat="48.98867" lon="1.09512">
        <ele>124.15</ele>
        <time>2011-10-08T14:30:47Z</time>
      </trkpt>
      <trkpt lat="48.9888" lon="1.09522">
        <ele>122.71</ele>
        <time>2011-10-08T14:30:50Z</time>
      </trkpt>
      <trkpt lat="48.98914" lon="1.09551">
        <ele>120.78</ele>
        <time>2011-10-08T14:30:58Z</time>
      </trkpt>
      <trkpt lat="48.9893" lon="1.09564">
        <ele>118.86</ele>
        <time>2011-10-08T14:31:01Z</time>
      </trkpt>
      <trkpt lat="48.9896" lon="1.09582">
        <ele>115.98</ele>
        <time>2011-10-08T14:31:06Z</time>
      </trkpt>
      <trkpt lat="48.98966" lon="1.09587">
        <ele>115.5</ele>
        <time>2011-10-08T14:31:07Z</time>
      </trkpt>
      <trkpt lat="48.99023" lon="1.0963">
        <ele>113.09</ele>
        <time>2011-10-08T14:31:17Z</time>
      </trkpt>
      <trkpt lat="48.99036" lon="1.09643">
        <ele>111.65</ele>
        <time>2011-10-08T14:31:20Z</time>
      </trkpt>
      <trkpt lat="48.99049" lon="1.0966">
        <ele>110.21</ele>
        <time>2011-10-08T14:31:23Z</time>
      </trkpt>
      <trkpt lat="48.9906" lon="1.09688">
        <ele>108.77</ele>
        <time>2011-10-08T14:31:27Z</time>
      </trkpt>
      <trkpt lat="48.99073" lon="1.09733">
        <ele>108.77</ele>
        <time>2011-10-08T14:31:33Z</time>
      </trkpt>
      <trkpt lat="48.99079" lon="1.09785">
        <ele>108.29</ele>
        <time>2011-10-08T14:31:41Z</time>
      </trkpt>
      <trkpt lat="48.99083" lon="1.0981">
        <ele>108.29</ele>
        <time>2011-10-08T14:31:45Z</time>
      </trkpt>
      <trkpt lat="48.99091" lon="1.09843">
        <ele>107.81</ele>
        <time>2011-10-08T14:31:50Z</time>
      </trkpt>
      <trkpt lat="48.99101" lon="1.09876">
        <ele>106.36</ele>
        <time>2011-10-08T14:31:55Z</time>
      </trkpt>
      <trkpt lat="48.99102" lon="1.09899">
        <ele>107.81</ele>
        <time>2011-10-08T14:32:02Z</time>
      </trkpt>
      <trkpt lat="48.99102" lon="1.09902">
        <ele>108.29</ele>
        <time>2011-10-08T14:32:04Z</time>
      </trkpt>
      <trkpt lat="48.99122" lon="1.09897">
        <ele>103.96</ele>
        <time>2011-10-08T14:32:11Z</time>
      </trkpt>
      <trkpt lat="48.9913" lon="1.09906">
        <ele>103.96</ele>
        <time>2011-10-08T14:32:13Z</time>
      </trkpt>
      <trkpt lat="48.99152" lon="1.09931">
        <ele>100.6</ele>
        <time>2011-10-08T14:32:19Z</time>
      </trkpt>
      <trkpt lat="48.99191" lon="1.09961">
        <ele>96.27</ele>
        <time>2011-10-08T14:32:26Z</time>
      </trkpt>
      <trkpt lat="48.99198" lon="1.09965">
        <ele>96.75</ele>
        <time>2011-10-08T14:32:27Z</time>
      </trkpt>
      <trkpt lat="48.99218" lon="1.09977">
        <ele>95.31</ele>
        <time>2011-10-08T14:32:30Z</time>
      </trkpt>
      <trkpt lat="48.99274" lon="1.09983">
        <ele>90.98</ele>
        <time>2011-10-08T14:32:37Z</time>
      </trkpt>
      <trkpt lat="48.99292" lon="1.0998">
        <ele>88.58</ele>
        <time>2011-10-08T14:32:39Z</time>
      </trkpt>
      <trkpt lat="48.99333" lon="1.09962">
        <ele>84.73</ele>
        <time>2011-10-08T14:32:44Z</time>
      </trkpt>
      <trkpt lat="48.99401" lon="1.09933">
        <ele>81.37</ele>
        <time>2011-10-08T14:32:52Z</time>
      </trkpt>
      <trkpt lat="48.99427" lon="1.09921">
        <ele>80.41</ele>
        <time>2011-10-08T14:32:55Z</time>
      </trkpt>
      <trkpt lat="48.99455" lon="1.09891">
        <ele>79.93</ele>
        <time>2011-10-08T14:32:59Z</time>
      </trkpt>
      <trkpt lat="48.99465" lon="1.09871">
        <ele>79.93</ele>
        <time>2011-10-08T14:33:01Z</time>
      </trkpt>
      <trkpt lat="48.99489" lon="1.09857">
        <ele>76.56</ele>
        <time>2011-10-08T14:33:05Z</time>
      </trkpt>
      <trkpt lat="48.9951" lon="1.09881">
        <ele>78</ele>
        <time>2011-10-08T14:33:08Z</time>
      </trkpt>
      <trkpt lat="48.99529" lon="1.09925">
        <ele>77.04</ele>
        <time>2011-10-08T14:33:12Z</time>
      </trkpt>
      <trkpt lat="48.99549" lon="1.09985">
        <ele>72.72</ele>
        <time>2011-10-08T14:33:17Z</time>
      </trkpt>
      <trkpt lat="48.99556" lon="1.1001">
        <ele>71.27</ele>
        <time>2011-10-08T14:33:19Z</time>
      </trkpt>
      <trkpt lat="48.99585" lon="1.10027">
        <ele>67.91</ele>
        <time>2011-10-08T14:33:24Z</time>
      </trkpt>
      <trkpt lat="48.99655" lon="1.09977">
        <ele>67.43</ele>
        <time>2011-10-08T14:33:34Z</time>
      </trkpt>
      <trkpt lat="48.99673" lon="1.09962">
        <ele>66.95</ele>
        <time>2011-10-08T14:33:37Z</time>
      </trkpt>
      <trkpt lat="48.99773" lon="1.0983">
        <ele>66.95</ele>
        <time>2011-10-08T14:33:55Z</time>
      </trkpt>
      <trkpt lat="48.99803" lon="1.0979">
        <ele>66.47</ele>
        <time>2011-10-08T14:34:01Z</time>
      </trkpt>
      <trkpt lat="48.99812" lon="1.09777">
        <ele>67.91</ele>
        <time>2011-10-08T14:34:03Z</time>
      </trkpt>
      <trkpt lat="48.99835" lon="1.09783">
        <ele>66.95</ele>
        <time>2011-10-08T14:34:08Z</time>
      </trkpt>
      <trkpt lat="48.99898" lon="1.09967">
        <ele>66.95</ele>
        <time>2011-10-08T14:34:28Z</time>
      </trkpt>
      <trkpt lat="48.99914" lon="1.10019">
        <ele>67.91</ele>
        <time>2011-10-08T14:34:39Z</time>
      </trkpt>
      <trkpt lat="48.99923" lon="1.10045">
        <ele>68.39</ele>
        <time>2011-10-08T14:34:50Z</time>
      </trkpt>
      <trkpt lat="48.99925" lon="1.10051">
        <ele>67.43</ele>
        <time>2011-10-08T14:34:51Z</time>
      </trkpt>
      <trkpt lat="48.9993" lon="1.10071">
        <ele>68.39</ele>
        <time>2011-10-08T14:34:54Z</time>
      </trkpt>
      <trkpt lat="48.99938" lon="1.10099">
        <ele>67.91</ele>
        <time>2011-10-08T14:34:58Z</time>
      </trkpt>
      <trkpt lat="48.99949" lon="1.10114">
        <ele>68.39</ele>
        <time>2011-10-08T14:35:02Z</time>
      </trkpt>
      <trkpt lat="49.00032" lon="1.10062">
        <ele>68.39</ele>
        <time>2011-10-08T14:35:20Z</time>
      </trkpt>
      <trkpt lat="49.00087" lon="1.1004">
        <ele>66.95</ele>
        <time>2011-10-08T14:35:30Z</time>
      </trkpt>
      <trkpt lat="49.00163" lon="1.09968">
        <ele>67.91</ele>
        <time>2011-10-08T14:35:44Z</time>
      </trkpt>
      <trkpt lat="49.0023" lon="1.09901">
        <ele>69.35</ele>
        <time>2011-10-08T14:35:58Z</time>
      </trkpt>
      <trkpt lat="49.00241" lon="1.0989">
        <ele>68.39</ele>
        <time>2011-10-08T14:36:01Z</time>
      </trkpt>
      <trkpt lat="49.00258" lon="1.09876">
        <ele>70.31</ele>
        <time>2011-10-08T14:36:11Z</time>
      </trkpt>
      <trkpt lat="49.00258" lon="1.09876">
        <ele>69.83</ele>
        <time>2011-10-08T14:36:12Z</time>
      </trkpt>
      <trkpt lat="49.00256" lon="1.0986">
        <ele>68.87</ele>
        <time>2011-10-08T14:36:17Z</time>
      </trkpt>
      <trkpt lat="49.00185" lon="1.09748">
        <ele>70.31</ele>
        <time>2011-10-08T14:36:42Z</time>
      </trkpt>
      <trkpt lat="49.00175" lon="1.09731">
        <ele>70.31</ele>
        <time>2011-10-08T14:36:46Z</time>
      </trkpt>
      <trkpt lat="49.00172" lon="1.09712">
        <ele>70.79</ele>
        <time>2011-10-08T14:36:50Z</time>
      </trkpt>
      <trkpt lat="49.00165" lon="1.0968">
        <ele>73.68</ele>
        <time>2011-10-08T14:37:03Z</time>
      </trkpt>
      <trkpt lat="49.00165" lon="1.09654">
        <ele>77.52</ele>
        <time>2011-10-08T14:37:17Z</time>
      </trkpt>
      <trkpt lat="49.00164" lon="1.09643">
        <ele>78.97</ele>
        <time>2011-10-08T14:37:24Z</time>
      </trkpt>
      <trkpt lat="49.00164" lon="1.0963">
        <ele>80.89</ele>
        <time>2011-10-08T14:37:38Z</time>
      </trkpt>
      <trkpt lat="49.00163" lon="1.09617">
        <ele>83.29</ele>
        <time>2011-10-08T14:37:52Z</time>
      </trkpt>
      <trkpt lat="49.00164" lon="1.09608">
        <ele>85.21</ele>
        <time>2011-10-08T14:38:05Z</time>
      </trkpt>
      <trkpt lat="49.00166" lon="1.09595">
        <ele>88.58</ele>
        <time>2011-10-08T14:38:21Z</time>
      </trkpt>
      <trkpt lat="49.00164" lon="1.0957">
        <ele>89.54</ele>
        <time>2011-10-08T14:38:38Z</time>
      </trkpt>
      <trkpt lat="49.00164" lon="1.09551">
        <ele>92.42</ele>
        <time>2011-10-08T14:38:54Z</time>
      </trkpt>
      <trkpt lat="49.00166" lon="1.09536">
        <ele>95.31</ele>
        <time>2011-10-08T14:39:13Z</time>
      </trkpt>
      <trkpt lat="49.00164" lon="1.09515">
        <ele>96.27</ele>
        <time>2011-10-08T14:39:30Z</time>
      </trkpt>
      <trkpt lat="49.00164" lon="1.09498">
        <ele>99.15</ele>
        <time>2011-10-08T14:39:48Z</time>
      </trkpt>
      <trkpt lat="49.00162" lon="1.09481">
        <ele>100.11</ele>
        <time>2011-10-08T14:40:04Z</time>
      </trkpt>
      <trkpt lat="49.0016" lon="1.09458">
        <ele>103</ele>
        <time>2011-10-08T14:40:25Z</time>
      </trkpt>
      <trkpt lat="49.00157" lon="1.09437">
        <ele>105.88</ele>
        <time>2011-10-08T14:40:48Z</time>
      </trkpt>
      <trkpt lat="49.00157" lon="1.09414">
        <ele>108.77</ele>
        <time>2011-10-08T14:41:09Z</time>
      </trkpt>
      <trkpt lat="49.00156" lon="1.09392">
        <ele>112.13</ele>
        <time>2011-10-08T14:41:29Z</time>
      </trkpt>
      <trkpt lat="49.00155" lon="1.09372">
        <ele>114.53</ele>
        <time>2011-10-08T14:41:48Z</time>
      </trkpt>
      <trkpt lat="49.00155" lon="1.09345">
        <ele>117.42</ele>
        <time>2011-10-08T14:42:11Z</time>
      </trkpt>
      <trkpt lat="49.00155" lon="1.09337">
        <ele>117.42</ele>
        <time>2011-10-08T14:42:27Z</time>
      </trkpt>
      <trkpt lat="49.0015" lon="1.09306">
        <ele>118.38</ele>
        <time>2011-10-08T14:42:44Z</time>
      </trkpt>
      <trkpt lat="49.00135" lon="1.09248">
        <ele>118.38</ele>
        <time>2011-10-08T14:42:57Z</time>
      </trkpt>
      <trkpt lat="49.00133" lon="1.09243">
        <ele>117.9</ele>
        <time>2011-10-08T14:42:58Z</time>
      </trkpt>
      <trkpt lat="49.00145" lon="1.0919">
        <ele>118.38</ele>
        <time>2011-10-08T14:43:12Z</time>
      </trkpt>
      <trkpt lat="49.00174" lon="1.09151">
        <ele>118.86</ele>
        <time>2011-10-08T14:43:23Z</time>
      </trkpt>
      <trkpt lat="49.00242" lon="1.09124">
        <ele>115.98</ele>
        <time>2011-10-08T14:43:41Z</time>
      </trkpt>
      <trkpt lat="49.00254" lon="1.09087">
        <ele>117.42</ele>
        <time>2011-10-08T14:43:48Z</time>
      </trkpt>
      <trkpt lat="49.0021" lon="1.09003">
        <ele>117.9</ele>
        <time>2011-10-08T14:44:06Z</time>
      </trkpt>
      <trkpt lat="49.00209" lon="1.08953">
        <ele>117.42</ele>
        <time>2011-10-08T14:44:19Z</time>
      </trkpt>
      <trkpt lat="49.0023" lon="1.08949">
        <ele>117.42</ele>
        <time>2011-10-08T14:44:27Z</time>
      </trkpt>
      <trkpt lat="49.00242" lon="1.08941">
        <ele>117.42</ele>
        <time>2011-10-08T14:44:32Z</time>
      </trkpt>
      <trkpt lat="49.00246" lon="1.08915">
        <ele>118.38</ele>
        <time>2011-10-08T14:44:45Z</time>
      </trkpt>
      <trkpt lat="49.00245" lon="1.08916">
        <ele>118.38</ele>
        <time>2011-10-08T14:45:09Z</time>
      </trkpt>
      <trkpt lat="49.00248" lon="1.08911">
        <ele>118.38</ele>
        <time>2011-10-08T14:45:27Z</time>
      </trkpt>
    </trkseg>
  </trk>
</gpx>